Observation data for Lake McClellan 2NW on 07/18/2019      Previous  Date  Next       Current Mesonet Observations  Soil Data  Daily Summary Page  Observations in Plain Language
KMC5 180500Z 18015KT 27/16 A2999 RMK A01 T02730163  RH  051%=      5-min Rain = 0
KMC5 180501Z 18014KT 27/16 A2999 RMK A01 T02730163  RH  051%=      5-min Rain = 0
KMC5 180502Z 18016KT 27/16 A2999 RMK A01 T02720163  RH  051%=      5-min Rain = 0
KMC5 180503Z 17014KT 27/16 A2999 RMK A01 T02720163  RH  052%=      5-min Rain = 0
KMC5 180504Z 18013KT 27/16 A2999 RMK A01 T02710163  RH  052%=      5-min Rain = 0
KMC5 180505Z 17012KT 27/16 A2999 RMK A01 T02700164  RH  052%=      5-min Rain = 0
KMC5 180506Z 18013KT 27/16 A2999 RMK A01 T02690164  RH  053%=      5-min Rain = 0
KMC5 180507Z 17013KT 27/16 A2998 RMK A01 T02690164  RH  053%=      5-min Rain = 0
KMC5 180508Z 18013KT 27/16 A2998 RMK A01 T02680164  RH  053%=      5-min Rain = 0
KMC5 180509Z 18014KT 27/16 A2998 RMK A01 T02680163  RH  053%=      5-min Rain = 0
KMC5 180510Z 18014KT 27/16 A2998 RMK A01 T02680163  RH  053%=      5-min Rain = 0
KMC5 180511Z 18016G22KT 27/16 A2998 RMK A01 T02690164  RH  052%=      5-min Rain = 0
KMC5 180512Z 18013KT 27/16 A2998 RMK A01 T02700163  RH  052%=      5-min Rain = 0
KMC5 180513Z 18013KT 27/16 A2998 RMK A01 T02700164  RH  052%=      5-min Rain = 0
KMC5 180514Z 18014KT 27/16 A2998 RMK A01 T02700164  RH  052%=      5-min Rain = 0
KMC5 180515Z 18013KT 27/16 A2999 RMK A01 T02700164  RH  052%=      5-min Rain = 0
KMC5 180516Z 18013KT 27/16 A2999 RMK A01 T02690164  RH  053%=      5-min Rain = 0
KMC5 180517Z 18013KT 27/16 A2999 RMK A01 T02690164  RH  053%=      5-min Rain = 0
KMC5 180518Z 18014KT 27/16 A2999 RMK A01 T02690164  RH  053%=      5-min Rain = 0
KMC5 180519Z 18014KT 27/16 A2999 RMK A01 T02680164  RH  053%=      5-min Rain = 0
KMC5 180520Z 18014KT 27/16 A2999 RMK A01 T02690164  RH  053%=      5-min Rain = 0
KMC5 180521Z 18013KT 27/17 A2999 RMK A01 T02690165  RH  053%=      5-min Rain = 0
KMC5 180522Z 18012KT 27/17 A2999 RMK A01 T02680165  RH  053%=      5-min Rain = 0
KMC5 180523Z 18014KT 27/17 A2999 RMK A01 T02670165  RH  054%=      5-min Rain = 0
KMC5 180524Z 18013KT 27/17 A2999 RMK A01 T02670165  RH  054%=      5-min Rain = 0
KMC5 180525Z 18014KT 27/17 A2999 RMK A01 T02670166  RH  054%=      5-min Rain = 0
KMC5 180526Z 18014KT 27/17 A2999 RMK A01 T02670165  RH  054%=      5-min Rain = 0
KMC5 180527Z 18014KT 27/17 A2999 RMK A01 T02670166  RH  054%=      5-min Rain = 0
KMC5 180528Z 18013KT 27/17 A2999 RMK A01 T02670166  RH  054%=      5-min Rain = 0
KMC5 180529Z 18014G19KT 27/17 A2999 RMK A01 T02660166  RH  054%=      5-min Rain = 0
KMC5 180530Z 18015KT 27/17 A2999 RMK A01 T02660166  RH  054%=      5-min Rain = 0
KMC5 180531Z 18016KT 27/17 A2999 RMK A01 T02670165  RH  054%=      5-min Rain = 0
KMC5 180532Z 18015KT 27/17 A2999 RMK A01 T02670166  RH  054%=      5-min Rain = 0
KMC5 180533Z 18014KT 27/17 A2999 RMK A01 T02670166  RH  054%=      5-min Rain = 0
KMC5 180534Z 17015G20KT 27/17 A2999 RMK A01 T02670166  RH  054%=      5-min Rain = 0
KMC5 180535Z 18016KT 27/17 A2999 RMK A01 T02670166  RH  054%=      5-min Rain = 0
KMC5 180536Z 18013G18KT 27/17 A2999 RMK A01 T02670167  RH  054%=      5-min Rain = 0
KMC5 180537Z 17013G19KT 27/17 A2998 RMK A01 T02660167  RH  055%=      5-min Rain = 0
KMC5 180538Z 17015G20KT 27/17 A2998 RMK A01 T02650167  RH  055%=      5-min Rain = 0
KMC5 180539Z 17016KT 27/17 A2998 RMK A01 T02650167  RH  055%=      5-min Rain = 0
KMC5 180540Z 17015KT 27/17 A2998 RMK A01 T02650167  RH  055%=      5-min Rain = 0
KMC5 180541Z 17013KT 27/17 A2998 RMK A01 T02650167  RH  055%=      5-min Rain = 0
KMC5 180542Z 17015KT 27/17 A2998 RMK A01 T02650167  RH  055%=      5-min Rain = 0
KMC5 180543Z 17017KT 27/17 A2998 RMK A01 T02650167  RH  055%=      5-min Rain = 0
KMC5 180544Z 17014KT 27/17 A2998 RMK A01 T02660167  RH  055%=      5-min Rain = 0
KMC5 180545Z 17015KT 27/17 A2998 RMK A01 T02660167  RH  055%=      5-min Rain = 0
KMC5 180546Z 17016KT 27/17 A2998 RMK A01 T02660167  RH  055%=      5-min Rain = 0
KMC5 180547Z 17015KT 27/17 A2998 RMK A01 T02660167  RH  055%=      5-min Rain = 0
KMC5 180548Z 17013KT 27/17 A2998 RMK A01 T02650168  RH  055%=      5-min Rain = 0
KMC5 180549Z 17014KT 26/17 A2998 RMK A01 T02640168  RH  055%=      5-min Rain = 0
KMC5 180550Z 17014KT 26/17 A2998 RMK A01 T02640167  RH  055%=      5-min Rain = 0
KMC5 180551Z 18014KT 26/17 A2998 RMK A01 T02640167  RH  055%=      5-min Rain = 0
KMC5 180552Z 18014KT 26/17 A2998 RMK A01 T02640167  RH  055%=      5-min Rain = 0
KMC5 180553Z 18016KT 26/17 A2998 RMK A01 T02640168  RH  055%=      5-min Rain = 0
KMC5 180554Z 18016KT 27/17 A2998 RMK A01 T02650168  RH  055%=      5-min Rain = 0
KMC5 180555Z 18015KT 27/17 A2998 RMK A01 T02650167  RH  055%=      5-min Rain = 0
KMC5 180556Z 18017KT 27/17 A2998 RMK A01 T02650167  RH  055%=      5-min Rain = 0
KMC5 180557Z 18017KT 27/17 A2998 RMK A01 T02650167  RH  055%=      5-min Rain = 0
KMC5 180558Z 18016KT 27/17 A2998 RMK A01 T02660168  RH  055%=      5-min Rain = 0
KMC5 180559Z 17013KT 27/17 A2998 RMK A01 T02660168  RH  055%=      5-min Rain = 0
KMC5 180600Z 18014KT 27/17 A2998 RMK A01 T02660168  RH  055%=      5-min Rain = 0
KMC5 180601Z 18015KT 27/17 A2998 RMK A01 T02650168  RH  055%=      5-min Rain = 0
KMC5 180602Z 17015KT 26/17 A2998 RMK A01 T02640168  RH  055%=      5-min Rain = 0
KMC5 180603Z 18013KT 27/17 A2998 RMK A01 T02650168  RH  055%=      5-min Rain = 0
KMC5 180604Z 17015KT 26/17 A2998 RMK A01 T02640169  RH  056%=      5-min Rain = 0
KMC5 180605Z 18015KT 26/17 A2998 RMK A01 T02640169  RH  056%=      5-min Rain = 0
KMC5 180606Z 17014G19KT 26/17 A2998 RMK A01 T02640169  RH  056%=      5-min Rain = 0
KMC5 180607Z 17016G21KT 26/17 A2998 RMK A01 T02630168  RH  056%=      5-min Rain = 0
KMC5 180608Z 17014KT 26/17 A2998 RMK A01 T02630169  RH  056%=      5-min Rain = 0
KMC5 180609Z 17014KT 26/17 A2998 RMK A01 T02630169  RH  056%=      5-min Rain = 0
KMC5 180610Z 18016KT 26/17 A2998 RMK A01 T02630169  RH  056%=      5-min Rain = 0
KMC5 180611Z 17015KT 26/17 A2998 RMK A01 T02640168  RH  056%=      5-min Rain = 0
KMC5 180612Z 18014KT 26/17 A2997 RMK A01 T02640169  RH  056%=      5-min Rain = 0
KMC5 180613Z 18014KT 26/17 A2998 RMK A01 T02630169  RH  056%=      5-min Rain = 0
KMC5 180614Z 18014KT 26/17 A2998 RMK A01 T02630170  RH  056%=      5-min Rain = 0
KMC5 180615Z 18015KT 26/17 A2998 RMK A01 T02620169  RH  057%=      5-min Rain = 0
KMC5 180616Z 18012KT 26/17 A2998 RMK A01 T02620169  RH  057%=      5-min Rain = 0
KMC5 180617Z 18015KT 26/17 A2998 RMK A01 T02620169  RH  057%=      5-min Rain = 0
KMC5 180618Z 18014KT 26/17 A2998 RMK A01 T02620169  RH  057%=      5-min Rain = 0
KMC5 180619Z 17015KT 26/17 A2998 RMK A01 T02620170  RH  057%=      5-min Rain = 0
KMC5 180620Z 18015KT 26/17 A2998 RMK A01 T02610169  RH  057%=      5-min Rain = 0
KMC5 180621Z 17012KT 26/17 A2998 RMK A01 T02620169  RH  057%=      5-min Rain = 0
KMC5 180622Z 18013KT 26/17 A2998 RMK A01 T02620170  RH  057%=      5-min Rain = 0
KMC5 180623Z 18012KT 26/17 A2998 RMK A01 T02610170  RH  057%=      5-min Rain = 0
KMC5 180624Z 18011KT 26/17 A2998 RMK A01 T02600170  RH  058%=      5-min Rain = 0
KMC5 180625Z 18013KT 26/17 A2998 RMK A01 T02590170  RH  058%=      5-min Rain = 0
KMC5 180626Z 18015KT 26/17 A2998 RMK A01 T02590170  RH  058%=      5-min Rain = 0
KMC5 180627Z 18013KT 26/17 A2998 RMK A01 T02600170  RH  058%=      5-min Rain = 0
KMC5 180628Z 18014KT 26/17 A2998 RMK A01 T02600170  RH  058%=      5-min Rain = 0
KMC5 180629Z 19012KT 26/17 A2998 RMK A01 T02600170  RH  058%=      5-min Rain = 0
KMC5 180630Z 18012KT 26/17 A2998 RMK A01 T02590170  RH  058%=      5-min Rain = 0
KMC5 180631Z 19012KT 26/17 A2998 RMK A01 T02590170  RH  058%=      5-min Rain = 0
KMC5 180632Z 19012KT 26/17 A2998 RMK A01 T02580170  RH  058%=      5-min Rain = 0
KMC5 180633Z 19011KT 26/17 A2998 RMK A01 T02580170  RH  058%=      5-min Rain = 0
KMC5 180634Z 19012KT 26/17 A2998 RMK A01 T02570171  RH  059%=      5-min Rain = 0
KMC5 180635Z 19013KT 26/17 A2998 RMK A01 T02560170  RH  059%=      5-min Rain = 0
KMC5 180636Z 19012KT 26/17 A2998 RMK A01 T02570170  RH  059%=      5-min Rain = 0
KMC5 180637Z 19015KT 26/17 A2998 RMK A01 T02570170  RH  059%=      5-min Rain = 0
KMC5 180638Z 19012KT 26/17 A2998 RMK A01 T02580170  RH  058%=      5-min Rain = 0
KMC5 180639Z 19014KT 26/17 A2998 RMK A01 T02580170  RH  058%=      5-min Rain = 0
KMC5 180640Z 19012KT 26/17 A2998 RMK A01 T02580170  RH  058%=      5-min Rain = 0
KMC5 180641Z 19013KT 26/17 A2998 RMK A01 T02580171  RH  059%=      5-min Rain = 0
KMC5 180642Z 19013KT 26/17 A2998 RMK A01 T02570170  RH  059%=      5-min Rain = 0
KMC5 180643Z 18015KT 26/17 A2998 RMK A01 T02570170  RH  059%=      5-min Rain = 0
KMC5 180644Z 18013KT 26/17 A2998 RMK A01 T02570170  RH  059%=      5-min Rain = 0
KMC5 180645Z 18013KT 26/17 A2998 RMK A01 T02570171  RH  059%=      5-min Rain = 0
KMC5 180646Z 18014KT 26/17 A2997 RMK A01 T02560170  RH  059%=      5-min Rain = 0
KMC5 180647Z 18013KT 26/17 A2997 RMK A01 T02560171  RH  059%=      5-min Rain = 0
KMC5 180648Z 18016KT 26/17 A2997 RMK A01 T02550170  RH  059%=      5-min Rain = 0
KMC5 180649Z 17015KT 26/17 A2997 RMK A01 T02560169  RH  059%=      5-min Rain = 0
KMC5 180650Z 18016KT 26/17 A2997 RMK A01 T02560170  RH  059%=      5-min Rain = 0
KMC5 180651Z 18013KT 26/17 A2997 RMK A01 T02560170  RH  059%=      5-min Rain = 0
KMC5 180652Z 17016KT 26/17 A2997 RMK A01 T02560170  RH  059%=      5-min Rain = 0
KMC5 180653Z 17017KT 26/17 A2997 RMK A01 T02560170  RH  059%=      5-min Rain = 0
KMC5 180654Z 17014KT 26/17 A2997 RMK A01 T02560170  RH  059%=      5-min Rain = 0
KMC5 180655Z 17016KT 26/17 A2997 RMK A01 T02560170  RH  059%=      5-min Rain = 0
KMC5 180656Z 18014KT 26/17 A2997 RMK A01 T02560170  RH  059%=      5-min Rain = 0
KMC5 180657Z 18014KT 26/17 A2997 RMK A01 T02560170  RH  059%=      5-min Rain = 0
KMC5 180658Z 18014KT 26/17 A2997 RMK A01 T02560169  RH  059%=      5-min Rain = 0
KMC5 180659Z 18013KT 26/17 A2997 RMK A01 T02560170  RH  059%=      5-min Rain = 0
KMC5 180700Z 19012KT 26/17 A2997 RMK A01 T02560170  RH  059%=      5-min Rain = 0
KMC5 180701Z 20010KT 26/17 A2997 RMK A01 T02560170  RH  059%=      5-min Rain = 0
KMC5 180702Z 19011KT 26/17 A2997 RMK A01 T02550170  RH  060%=      5-min Rain = 0
KMC5 180703Z 19012KT 26/17 A2997 RMK A01 T02550171  RH  060%=      5-min Rain = 0
KMC5 180704Z 19012KT 26/17 A2997 RMK A01 T02550170  RH  060%=      5-min Rain = 0
KMC5 180705Z 19013KT 25/17 A2997 RMK A01 T02540170  RH  060%=      5-min Rain = 0
KMC5 180706Z 18015KT 26/17 A2997 RMK A01 T02550170  RH  060%=      5-min Rain = 0
KMC5 180707Z 18014KT 26/17 A2997 RMK A01 T02550170  RH  059%=      5-min Rain = 0
KMC5 180708Z 18015KT 26/17 A2997 RMK A01 T02550170  RH  059%=      5-min Rain = 0
KMC5 180709Z 18016KT 26/17 A2996 RMK A01 T02550170  RH  059%=      5-min Rain = 0
KMC5 180710Z 18015KT 26/17 A2996 RMK A01 T02550170  RH  059%=      5-min Rain = 0
KMC5 180711Z 17015KT 25/17 A2996 RMK A01 T02540170  RH  060%=      5-min Rain = 0
KMC5 180712Z 17016KT 25/17 A2996 RMK A01 T02540170  RH  060%=      5-min Rain = 0
KMC5 180713Z 18017KT 25/17 A2996 RMK A01 T02540170  RH  060%=      5-min Rain = 0
KMC5 180714Z 18017KT 25/17 A2996 RMK A01 T02540170  RH  060%=      5-min Rain = 0
KMC5 180715Z 17017KT 25/17 A2996 RMK A01 T02540169  RH  059%=      5-min Rain = 0
KMC5 180716Z 18018KT 25/17 A2996 RMK A01 T02540169  RH  059%=      5-min Rain = 0
KMC5 180717Z 17014KT 26/17 A2996 RMK A01 T02550170  RH  059%=      5-min Rain = 0
KMC5 180718Z 17015KT 26/17 A2996 RMK A01 T02550170  RH  059%=      5-min Rain = 0
KMC5 180719Z 17016KT 25/17 A2996 RMK A01 T02540170  RH  059%=      5-min Rain = 0
KMC5 180720Z 18016KT 26/17 A2996 RMK A01 T02550169  RH  059%=      5-min Rain = 0
KMC5 180721Z 18014KT 26/17 A2996 RMK A01 T02550169  RH  059%=      5-min Rain = 0
KMC5 180722Z 18013KT 26/17 A2996 RMK A01 T02550170  RH  059%=      5-min Rain = 0
KMC5 180723Z 18014KT 25/17 A2996 RMK A01 T02540169  RH  059%=      5-min Rain = 0
KMC5 180724Z 18013KT 25/17 A2996 RMK A01 T02540170  RH  059%=      5-min Rain = 0
KMC5 180725Z 18011KT 25/17 A2996 RMK A01 T02540170  RH  060%=      5-min Rain = 0
KMC5 180726Z 18013KT 25/17 A2996 RMK A01 T02540170  RH  060%=      5-min Rain = 0
KMC5 180727Z 18011KT 25/17 A2996 RMK A01 T02540170  RH  060%=      5-min Rain = 0
KMC5 180728Z 18011KT 25/17 A2996 RMK A01 T02530170  RH  060%=      5-min Rain = 0
KMC5 180729Z 19012KT 25/17 A2996 RMK A01 T02530169  RH  060%=      5-min Rain = 0
KMC5 180730Z 19011KT 25/17 A2997 RMK A01 T02530169  RH  060%=      5-min Rain = 0
KMC5 180731Z 19012KT 25/17 A2997 RMK A01 T02540169  RH  060%=      5-min Rain = 0
KMC5 180732Z 19011KT 25/17 A2997 RMK A01 T02540170  RH  060%=      5-min Rain = 0
KMC5 180733Z 19011KT 25/17 A2997 RMK A01 T02530170  RH  060%=      5-min Rain = 0
KMC5 180734Z 20011KT 25/17 A2997 RMK A01 T02530169  RH  060%=      5-min Rain = 0
KMC5 180735Z 20011KT 25/17 A2997 RMK A01 T02520170  RH  060%=      5-min Rain = 0
KMC5 180736Z 20012KT 25/17 A2997 RMK A01 T02520169  RH  060%=      5-min Rain = 0
KMC5 180737Z 20012KT 25/17 A2997 RMK A01 T02530169  RH  060%=      5-min Rain = 0
KMC5 180738Z 19013KT 25/17 A2997 RMK A01 T02530169  RH  060%=      5-min Rain = 0
KMC5 180739Z 19012KT 25/17 A2997 RMK A01 T02530169  RH  060%=      5-min Rain = 0
KMC5 180740Z 19012KT 25/17 A2997 RMK A01 T02530170  RH  060%=      5-min Rain = 0
KMC5 180741Z 18012KT 25/17 A2997 RMK A01 T02510170  RH  061%=      5-min Rain = 0
KMC5 180742Z 18012KT 25/17 A2997 RMK A01 T02500170  RH  061%=      5-min Rain = 0
KMC5 180743Z 18013KT 25/17 A2996 RMK A01 T02500170  RH  061%=      5-min Rain = 0
KMC5 180744Z 18014KT 25/17 A2996 RMK A01 T02500169  RH  061%=      5-min Rain = 0
KMC5 180745Z 18012KT 25/17 A2996 RMK A01 T02500169  RH  061%=      5-min Rain = 0
KMC5 180746Z 18012KT 25/17 A2996 RMK A01 T02500170  RH  061%=      5-min Rain = 0
KMC5 180747Z 17012KT 25/17 A2996 RMK A01 T02500169  RH  061%=      5-min Rain = 0
KMC5 180748Z 18013KT 25/17 A2996 RMK A01 T02490169  RH  061%=      5-min Rain = 0
KMC5 180749Z 18013KT 25/17 A2996 RMK A01 T02500169  RH  061%=      5-min Rain = 0
KMC5 180750Z 18013KT 25/17 A2997 RMK A01 T02510169  RH  060%=      5-min Rain = 0
KMC5 180751Z 18014KT 25/17 A2997 RMK A01 T02510169  RH  060%=      5-min Rain = 0
KMC5 180752Z 18014KT 25/17 A2997 RMK A01 T02510169  RH  060%=      5-min Rain = 0
KMC5 180753Z 18013KT 25/17 A2996 RMK A01 T02510169  RH  060%=      5-min Rain = 0
KMC5 180754Z 18012KT 25/17 A2996 RMK A01 T02500169  RH  061%=      5-min Rain = 0
KMC5 180755Z 18012KT 25/17 A2996 RMK A01 T02500170  RH  061%=      5-min Rain = 0
KMC5 180756Z 17012KT 25/17 A2996 RMK A01 T02490170  RH  061%=      5-min Rain = 0
KMC5 180757Z 18012KT 25/17 A2996 RMK A01 T02480169  RH  061%=      5-min Rain = 0
KMC5 180758Z 17011KT 25/17 A2996 RMK A01 T02490170  RH  061%=      5-min Rain = 0
KMC5 180759Z 18012KT 25/17 A2996 RMK A01 T02480169  RH  062%=      5-min Rain = 0
KMC5 180800Z 18012KT 25/17 A2996 RMK A01 T02480169  RH  061%=      5-min Rain = 0
KMC5 180801Z 18013KT 25/17 A2996 RMK A01 T02480169  RH  062%=      5-min Rain = 0
KMC5 180802Z 18012KT 25/17 A2996 RMK A01 T02480170  RH  062%=      5-min Rain = 0
KMC5 180803Z 18012KT 25/17 A2996 RMK A01 T02480169  RH  062%=      5-min Rain = 0
KMC5 180804Z 18012KT 25/17 A2996 RMK A01 T02480169  RH  062%=      5-min Rain = 0
KMC5 180805Z 17013KT 25/17 A2996 RMK A01 T02480170  RH  062%=      5-min Rain = 0
KMC5 180806Z 17013KT 25/17 A2996 RMK A01 T02480170  RH  062%=      5-min Rain = 0
KMC5 180807Z 17012KT 25/17 A2996 RMK A01 T02470170  RH  062%=      5-min Rain = 0
KMC5 180808Z 17012KT 25/17 A2996 RMK A01 T02470170  RH  062%=      5-min Rain = 0
KMC5 180809Z 17013KT 25/17 A2996 RMK A01 T02470170  RH  062%=      5-min Rain = 0
KMC5 180810Z 17013KT 25/17 A2996 RMK A01 T02470169  RH  062%=      5-min Rain = 0
KMC5 180811Z 17013KT 25/17 A2996 RMK A01 T02470169  RH  062%=      5-min Rain = 0
KMC5 180812Z 17013KT 25/17 A2996 RMK A01 T02470169  RH  062%=      5-min Rain = 0
KMC5 180813Z 18012KT 25/17 A2996 RMK A01 T02470169  RH  062%=      5-min Rain = 0
KMC5 180814Z 17013G18KT 25/17 A2996 RMK A01 T02470169  RH  062%=      5-min Rain = 0
KMC5 180815Z 17012KT 25/17 A2996 RMK A01 T02470168  RH  061%=      5-min Rain = 0
KMC5 180816Z 18013KT 25/17 A2996 RMK A01 T02470168  RH  061%=      5-min Rain = 0
KMC5 180817Z 17012KT 25/17 A2996 RMK A01 T02470168  RH  061%=      5-min Rain = 0
KMC5 180818Z 17013KT 25/17 A2996 RMK A01 T02480169  RH  061%=      5-min Rain = 0
KMC5 180819Z 17013KT 25/17 A2996 RMK A01 T02480169  RH  061%=      5-min Rain = 0
KMC5 180820Z 17014KT 25/17 A2996 RMK A01 T02480169  RH  061%=      5-min Rain = 0
KMC5 180821Z 17012KT 25/17 A2996 RMK A01 T02480169  RH  061%=      5-min Rain = 0
KMC5 180822Z 17014KT 25/17 A2996 RMK A01 T02470169  RH  062%=      5-min Rain = 0
KMC5 180823Z 17013KT 25/17 A2996 RMK A01 T02470168  RH  062%=      5-min Rain = 0
KMC5 180824Z 17013KT 25/17 A2995 RMK A01 T02470168  RH  062%=      5-min Rain = 0
KMC5 180825Z 16013KT 25/17 A2995 RMK A01 T02470169  RH  062%=      5-min Rain = 0
KMC5 180826Z 17014KT 25/17 A2995 RMK A01 T02470168  RH  062%=      5-min Rain = 0
KMC5 180827Z 17013KT 25/17 A2995 RMK A01 T02470168  RH  061%=      5-min Rain = 0
KMC5 180828Z 17011KT 25/17 A2995 RMK A01 T02470168  RH  062%=      5-min Rain = 0
KMC5 180829Z 17013KT 25/17 A2995 RMK A01 T02460168  RH  062%=      5-min Rain = 0
KMC5 180830Z 17013KT 25/17 A2995 RMK A01 T02460168  RH  062%=      5-min Rain = 0
KMC5 180831Z 17012KT 25/17 A2996 RMK A01 T02460168  RH  062%=      5-min Rain = 0
KMC5 180832Z 17013KT 25/17 A2996 RMK A01 T02460168  RH  062%=      5-min Rain = 0
KMC5 180833Z 17012KT 25/17 A2996 RMK A01 T02460168  RH  062%=      5-min Rain = 0
KMC5 180834Z 17013KT 25/17 A2996 RMK A01 T02460168  RH  062%=      5-min Rain = 0
KMC5 180835Z 18012KT 25/17 A2996 RMK A01 T02460168  RH  062%=      5-min Rain = 0
KMC5 180836Z 18014KT 25/17 A2996 RMK A01 T02460168  RH  062%=      5-min Rain = 0
KMC5 180837Z 17013G18KT 25/17 A2996 RMK A01 T02460168  RH  062%=      5-min Rain = 0
KMC5 180838Z 18013KT 25/17 A2996 RMK A01 T02460168  RH  062%=      5-min Rain = 0
KMC5 180839Z 18013KT 25/17 A2996 RMK A01 T02460168  RH  062%=      5-min Rain = 0
KMC5 180840Z 18014KT 25/17 A2996 RMK A01 T02460168  RH  062%=      5-min Rain = 0
KMC5 180841Z 18013KT 25/17 A2996 RMK A01 T02460168  RH  062%=      5-min Rain = 0
KMC5 180842Z 18012KT 25/17 A2996 RMK A01 T02470168  RH  062%=      5-min Rain = 0
KMC5 180843Z 18011KT 25/17 A2996 RMK A01 T02460168  RH  062%=      5-min Rain = 0
KMC5 180844Z 18012KT 25/17 A2996 RMK A01 T02450168  RH  062%=      5-min Rain = 0
KMC5 180845Z 18012KT 25/17 A2996 RMK A01 T02450168  RH  062%=      5-min Rain = 0
KMC5 180846Z 18011KT 25/17 A2996 RMK A01 T02450169  RH  062%=      5-min Rain = 0
KMC5 180847Z 18011KT 25/17 A2996 RMK A01 T02450168  RH  062%=      5-min Rain = 0
KMC5 180848Z 18011KT 24/17 A2996 RMK A01 T02440169  RH  063%=      5-min Rain = 0
KMC5 180849Z 18012KT 24/17 A2996 RMK A01 T02430168  RH  063%=      5-min Rain = 0
KMC5 180850Z 18013KT 24/17 A2996 RMK A01 T02430168  RH  063%=      5-min Rain = 0
KMC5 180851Z 18014KT 24/17 A2996 RMK A01 T02440168  RH  062%=      5-min Rain = 0
KMC5 180852Z 18012KT 25/17 A2996 RMK A01 T02450168  RH  062%=      5-min Rain = 0
KMC5 180853Z 18012KT 24/17 A2996 RMK A01 T02440169  RH  063%=      5-min Rain = 0
KMC5 180854Z 17012KT 24/17 A2996 RMK A01 T02440169  RH  063%=      5-min Rain = 0
KMC5 180855Z 18013KT 24/17 A2996 RMK A01 T02430168  RH  063%=      5-min Rain = 0
KMC5 180856Z 17011KT 24/17 A2996 RMK A01 T02430168  RH  063%=      5-min Rain = 0
KMC5 180857Z 17011KT 24/17 A2996 RMK A01 T02420168  RH  063%=      5-min Rain = 0
KMC5 180858Z 18012KT 24/17 A2996 RMK A01 T02420168  RH  063%=      5-min Rain = 0
KMC5 180859Z 18011KT 24/17 A2996 RMK A01 T02420169  RH  064%=      5-min Rain = 0
KMC5 180900Z 18012KT 24/17 A2996 RMK A01 T02410168  RH  064%=      5-min Rain = 0
KMC5 180901Z 18011KT 24/17 A2996 RMK A01 T02410168  RH  064%=      5-min Rain = 0
KMC5 180902Z 18011KT 24/17 A2996 RMK A01 T02410168  RH  064%=      5-min Rain = 0
KMC5 180903Z 18012KT 24/17 A2996 RMK A01 T02410168  RH  064%=      5-min Rain = 0
KMC5 180904Z 18012KT 24/17 A2996 RMK A01 T02410168  RH  064%=      5-min Rain = 0
KMC5 180905Z 18010KT 24/17 A2996 RMK A01 T02410168  RH  064%=      5-min Rain = 0
KMC5 180906Z 18011KT 24/17 A2996 RMK A01 T02400169  RH  064%=      5-min Rain = 0
KMC5 180907Z 18011KT 24/17 A2996 RMK A01 T02390168  RH  064%=      5-min Rain = 0
KMC5 180908Z 18010KT 24/17 A2996 RMK A01 T02400169  RH  065%=      5-min Rain = 0
KMC5 180909Z 18010KT 24/17 A2996 RMK A01 T02390169  RH  065%=      5-min Rain = 0
KMC5 180910Z 18011KT 24/17 A2996 RMK A01 T02380169  RH  065%=      5-min Rain = 0
KMC5 180911Z 18010KT 24/17 A2996 RMK A01 T02380169  RH  065%=      5-min Rain = 0
KMC5 180912Z 18011KT 24/17 A2996 RMK A01 T02380169  RH  065%=      5-min Rain = 0
KMC5 180913Z 18010KT 24/17 A2997 RMK A01 T02370169  RH  065%=      5-min Rain = 0
KMC5 180914Z 18011KT 24/17 A2997 RMK A01 T02370169  RH  065%=      5-min Rain = 0
KMC5 180915Z 18011KT 24/17 A2997 RMK A01 T02380169  RH  065%=      5-min Rain = 0
KMC5 180916Z 18011KT 24/17 A2997 RMK A01 T02380169  RH  066%=      5-min Rain = 0
KMC5 180917Z 18011KT 24/17 A2997 RMK A01 T02380169  RH  065%=      5-min Rain = 0
KMC5 180918Z 18011KT 24/17 A2997 RMK A01 T02380169  RH  065%=      5-min Rain = 0
KMC5 180919Z 18012KT 24/17 A2997 RMK A01 T02380169  RH  065%=      5-min Rain = 0
KMC5 180920Z 18012KT 24/17 A2997 RMK A01 T02380169  RH  065%=      5-min Rain = 0
KMC5 180921Z 18012KT 24/17 A2997 RMK A01 T02380169  RH  065%=      5-min Rain = 0
KMC5 180922Z 18012KT 24/17 A2997 RMK A01 T02380169  RH  065%=      5-min Rain = 0
KMC5 180923Z 18012KT 24/17 A2997 RMK A01 T02380170  RH  065%=      5-min Rain = 0
KMC5 180924Z 18011KT 24/17 A2997 RMK A01 T02370169  RH  065%=      5-min Rain = 0
KMC5 180925Z 18012KT 24/17 A2997 RMK A01 T02370169  RH  066%=      5-min Rain = 0
KMC5 180926Z 18011KT 24/17 A2997 RMK A01 T02360169  RH  066%=      5-min Rain = 0
KMC5 180927Z 18012KT 24/17 A2997 RMK A01 T02360169  RH  066%=      5-min Rain = 0
KMC5 180928Z 18012KT 24/17 A2997 RMK A01 T02360169  RH  066%=      5-min Rain = 0
KMC5 180929Z 18012KT 24/17 A2997 RMK A01 T02360169  RH  066%=      5-min Rain = 0
KMC5 180930Z 18012KT 24/17 A2997 RMK A01 T02360169  RH  066%=      5-min Rain = 0
KMC5 180931Z 19012KT 24/17 A2997 RMK A01 T02360169  RH  066%=      5-min Rain = 0
KMC5 180932Z 18010KT 24/17 A2997 RMK A01 T02360170  RH  066%=      5-min Rain = 0
KMC5 180933Z 18010KT 24/17 A2997 RMK A01 T02360170  RH  067%=      5-min Rain = 0
KMC5 180934Z 18010KT 24/17 A2997 RMK A01 T02350170  RH  067%=      5-min Rain = 0
KMC5 180935Z 18011KT 23/17 A2997 RMK A01 T02340170  RH  067%=      5-min Rain = 0
KMC5 180936Z 18012KT 23/17 A2997 RMK A01 T02340169  RH  067%=      5-min Rain = 0
KMC5 180937Z 18012KT 24/17 A2997 RMK A01 T02350169  RH  066%=      5-min Rain = 0
KMC5 180938Z 18013KT 24/17 A2997 RMK A01 T02360170  RH  067%=      5-min Rain = 0
KMC5 180939Z 18012KT 24/17 A2997 RMK A01 T02360170  RH  066%=      5-min Rain = 0
KMC5 180940Z 18011KT 24/17 A2997 RMK A01 T02350170  RH  067%=      5-min Rain = 0
KMC5 180941Z 18012KT 23/17 A2997 RMK A01 T02340170  RH  067%=      5-min Rain = 0
KMC5 180942Z 18011KT 23/17 A2997 RMK A01 T02340169  RH  067%=      5-min Rain = 0
KMC5 180943Z 18012KT 23/17 A2997 RMK A01 T02340169  RH  067%=      5-min Rain = 0
KMC5 180944Z 18011KT 23/17 A2997 RMK A01 T02340170  RH  067%=      5-min Rain = 0
KMC5 180945Z 18010KT 23/17 A2997 RMK A01 T02340170  RH  067%=      5-min Rain = 0
KMC5 180946Z 18011KT 23/17 A2997 RMK A01 T02330170  RH  068%=      5-min Rain = 0
KMC5 180947Z 19011KT 23/17 A2997 RMK A01 T02330170  RH  068%=      5-min Rain = 0
KMC5 180948Z 19011KT 23/17 A2998 RMK A01 T02330170  RH  068%=      5-min Rain = 0
KMC5 180949Z 19010KT 23/17 A2998 RMK A01 T02330170  RH  068%=      5-min Rain = 0
KMC5 180950Z 19010KT 23/17 A2998 RMK A01 T02330170  RH  068%=      5-min Rain = 0
KMC5 180951Z 19011KT 23/17 A2998 RMK A01 T02320170  RH  068%=      5-min Rain = 0
KMC5 180952Z 19011KT 23/17 A2998 RMK A01 T02330170  RH  068%=      5-min Rain = 0
KMC5 180953Z 18011KT 23/17 A2998 RMK A01 T02330170  RH  068%=      5-min Rain = 0
KMC5 180954Z 18010KT 23/17 A2998 RMK A01 T02330170  RH  068%=      5-min Rain = 0
KMC5 180955Z 18011KT 23/17 A2998 RMK A01 T02320170  RH  068%=      5-min Rain = 0
KMC5 180956Z 18011KT 23/17 A2998 RMK A01 T02320171  RH  068%=      5-min Rain = 0
KMC5 180957Z 18011KT 23/17 A2998 RMK A01 T02310170  RH  069%=      5-min Rain = 0
KMC5 180958Z 18011KT 23/17 A2998 RMK A01 T02320171  RH  068%=      5-min Rain = 0
KMC5 180959Z 18010KT 23/17 A2998 RMK A01 T02310171  RH  069%=      5-min Rain = 0
KMC5 181000Z 18011KT 23/17 A2998 RMK A01 T02310171  RH  069%=      5-min Rain = 0
KMC5 181001Z 18011KT 23/17 A2998 RMK A01 T02310170  RH  069%=      5-min Rain = 0
KMC5 181002Z 18011KT 23/17 A2998 RMK A01 T02310170  RH  069%=      5-min Rain = 0
KMC5 181003Z 19010KT 23/17 A2998 RMK A01 T02310171  RH  069%=      5-min Rain = 0
KMC5 181004Z 19010KT 23/17 A2998 RMK A01 T02310171  RH  069%=      5-min Rain = 0
KMC5 181005Z 18009KT 23/17 A2998 RMK A01 T02310171  RH  069%=      5-min Rain = 0
KMC5 181006Z 18010KT 23/17 A2998 RMK A01 T02300171  RH  069%=      5-min Rain = 0
KMC5 181007Z 19010KT 23/17 A2998 RMK A01 T02290171  RH  070%=      5-min Rain = 0
KMC5 181008Z 19009KT 23/17 A2998 RMK A01 T02290171  RH  070%=      5-min Rain = 0
KMC5 181009Z 19009KT 23/17 A2998 RMK A01 T02290171  RH  070%=      5-min Rain = 0
KMC5 181010Z 19009KT 23/17 A2998 RMK A01 T02270171  RH  070%=      5-min Rain = 0
KMC5 181011Z 19008KT 23/17 A2998 RMK A01 T02270171  RH  071%=      5-min Rain = 0
KMC5 181012Z 19008KT 23/17 A2998 RMK A01 T02270171  RH  071%=      5-min Rain = 0
KMC5 181013Z 19008KT 23/17 A2998 RMK A01 T02270171  RH  071%=      5-min Rain = 0
KMC5 181014Z 19008KT 23/17 A2998 RMK A01 T02260171  RH  071%=      5-min Rain = 0
KMC5 181015Z 19008KT 23/17 A2998 RMK A01 T02260171  RH  071%=      5-min Rain = 0
KMC5 181016Z 19008KT 23/17 A2998 RMK A01 T02260171  RH  071%=      5-min Rain = 0
KMC5 181017Z 19008KT 23/17 A2998 RMK A01 T02260171  RH  071%=      5-min Rain = 0
KMC5 181018Z 19008KT 23/17 A2998 RMK A01 T02260170  RH  071%=      5-min Rain = 0
KMC5 181019Z 19008KT 23/17 A2998 RMK A01 T02270171  RH  071%=      5-min Rain = 0
KMC5 181020Z 19008KT 23/17 A2998 RMK A01 T02270171  RH  070%=      5-min Rain = 0
KMC5 181021Z 19008KT 23/17 A2998 RMK A01 T02270171  RH  071%=      5-min Rain = 0
KMC5 181022Z 19009KT 23/17 A2998 RMK A01 T02270171  RH  071%=      5-min Rain = 0
KMC5 181023Z 19009KT 23/17 A2998 RMK A01 T02270171  RH  071%=      5-min Rain = 0
KMC5 181024Z 19008KT 23/17 A2998 RMK A01 T02270171  RH  071%=      5-min Rain = 0
KMC5 181025Z 18009KT 23/17 A2998 RMK A01 T02270171  RH  071%=      5-min Rain = 0
KMC5 181026Z 19009KT 23/17 A2998 RMK A01 T02260170  RH  071%=      5-min Rain = 0
KMC5 181027Z 18008KT 23/17 A2998 RMK A01 T02260171  RH  071%=      5-min Rain = 0
KMC5 181028Z 18009KT 23/17 A2998 RMK A01 T02250171  RH  071%=      5-min Rain = 0
KMC5 181029Z 18009KT 23/17 A2998 RMK A01 T02250171  RH  072%=      5-min Rain = 0
KMC5 181030Z 18009KT 22/17 A2998 RMK A01 T02240171  RH  072%=      5-min Rain = 0
KMC5 181031Z 18009KT 22/17 A2998 RMK A01 T02240171  RH  072%=      5-min Rain = 0
KMC5 181032Z 18010KT 22/17 A2998 RMK A01 T02240171  RH  072%=      5-min Rain = 0
KMC5 181033Z 18010KT 22/17 A2998 RMK A01 T02240171  RH  072%=      5-min Rain = 0
KMC5 181034Z 19010KT 22/17 A2998 RMK A01 T02240170  RH  072%=      5-min Rain = 0
KMC5 181035Z 19010KT 23/17 A2998 RMK A01 T02250170  RH  071%=      5-min Rain = 0
KMC5 181036Z 19010KT 23/17 A2998 RMK A01 T02250171  RH  071%=      5-min Rain = 0
KMC5 181037Z 19009KT 23/17 A2998 RMK A01 T02250170  RH  071%=      5-min Rain = 0
KMC5 181038Z 19010KT 23/17 A2998 RMK A01 T02250170  RH  071%=      5-min Rain = 0
KMC5 181039Z 19010KT 23/17 A2998 RMK A01 T02250170  RH  071%=      5-min Rain = 0
KMC5 181040Z 19009KT 23/17 A2998 RMK A01 T02260171  RH  071%=      5-min Rain = 0
KMC5 181041Z 19009KT 23/17 A2998 RMK A01 T02260171  RH  071%=      5-min Rain = 0
KMC5 181042Z 19009KT 23/17 A2998 RMK A01 T02260170  RH  071%=      5-min Rain = 0
KMC5 181043Z 19009KT 23/17 A2998 RMK A01 T02260170  RH  071%=      5-min Rain = 0
KMC5 181044Z 19008KT 23/17 A2998 RMK A01 T02260171  RH  071%=      5-min Rain = 0
KMC5 181045Z 19009KT 23/17 A2998 RMK A01 T02260171  RH  071%=      5-min Rain = 0
KMC5 181046Z 19009KT 23/17 A2998 RMK A01 T02260170  RH  071%=      5-min Rain = 0
KMC5 181047Z 19009KT 23/17 A2998 RMK A01 T02260171  RH  071%=      5-min Rain = 0
KMC5 181048Z 19009KT 23/17 A2998 RMK A01 T02260171  RH  071%=      5-min Rain = 0
KMC5 181049Z 19009KT 23/17 A2998 RMK A01 T02260170  RH  071%=      5-min Rain = 0
KMC5 181050Z 19009KT 23/17 A2998 RMK A01 T02270170  RH  070%=      5-min Rain = 0
KMC5 181051Z 19009KT 23/17 A2998 RMK A01 T02270171  RH  070%=      5-min Rain = 0
KMC5 181052Z 19010KT 23/17 A2998 RMK A01 T02270170  RH  070%=      5-min Rain = 0
KMC5 181053Z 19010KT 23/17 A2998 RMK A01 T02270170  RH  070%=      5-min Rain = 0
KMC5 181054Z 19010KT 23/17 A2998 RMK A01 T02280170  RH  070%=      5-min Rain = 0
KMC5 181055Z 19009KT 23/17 A2998 RMK A01 T02270170  RH  070%=      5-min Rain = 0
KMC5 181056Z 18010KT 23/17 A2998 RMK A01 T02270170  RH  070%=      5-min Rain = 0
KMC5 181057Z 18010KT 23/17 A2998 RMK A01 T02270170  RH  070%=      5-min Rain = 0
KMC5 181058Z 19009KT 23/17 A2998 RMK A01 T02270170  RH  070%=      5-min Rain = 0
KMC5 181059Z 18010KT 23/17 A2998 RMK A01 T02260170  RH  070%=      5-min Rain = 0
KMC5 181100Z 18010KT 23/17 A2998 RMK A01 T02270169  RH  070%=      5-min Rain = 0
KMC5 181101Z 18010KT 23/17 A2998 RMK A01 T02270170  RH  070%=      5-min Rain = 0
KMC5 181102Z 19010KT 23/17 A2998 RMK A01 T02270170  RH  070%=      5-min Rain = 0
KMC5 181103Z 19010KT 23/17 A2998 RMK A01 T02270170  RH  070%=      5-min Rain = 0
KMC5 181104Z 18010KT 23/17 A2998 RMK A01 T02260170  RH  070%=      5-min Rain = 0
KMC5 181105Z 18010KT 23/17 A2998 RMK A01 T02260170  RH  071%=      5-min Rain = 0
KMC5 181106Z 18010KT 23/17 A2998 RMK A01 T02260170  RH  071%=      5-min Rain = 0
KMC5 181107Z 18010KT 23/17 A2998 RMK A01 T02250170  RH  071%=      5-min Rain = 0
KMC5 181108Z 18010KT 23/17 A2998 RMK A01 T02250170  RH  071%=      5-min Rain = 0
KMC5 181109Z 18011KT 23/17 A2998 RMK A01 T02250170  RH  071%=      5-min Rain = 0
KMC5 181110Z 18011KT 23/17 A2998 RMK A01 T02250170  RH  071%=      5-min Rain = 0
KMC5 181111Z 18010KT 23/17 A2998 RMK A01 T02260169  RH  070%=      5-min Rain = 0
KMC5 181112Z 18011KT 23/17 A2998 RMK A01 T02270169  RH  070%=      5-min Rain = 0
KMC5 181113Z 18012KT 23/17 A2998 RMK A01 T02270169  RH  070%=      5-min Rain = 0
KMC5 181114Z 18012KT 23/17 A2998 RMK A01 T02280169  RH  069%=      5-min Rain = 0
KMC5 181115Z 19011KT 23/17 A2998 RMK A01 T02280170  RH  069%=      5-min Rain = 0
KMC5 181116Z 18011KT 23/17 A2998 RMK A01 T02280170  RH  070%=      5-min Rain = 0
KMC5 181117Z 18011KT 23/17 A2998 RMK A01 T02280169  RH  070%=      5-min Rain = 0
KMC5 181118Z 18011KT 23/17 A2998 RMK A01 T02280169  RH  069%=      5-min Rain = 0
KMC5 181119Z 18012KT 23/17 A2998 RMK A01 T02280169  RH  069%=      5-min Rain = 0
KMC5 181120Z 18012KT 23/17 A2998 RMK A01 T02280169  RH  069%=      5-min Rain = 0
KMC5 181121Z 18014KT 23/17 A2998 RMK A01 T02290169  RH  069%=      5-min Rain = 0
KMC5 181122Z 18014KT 23/17 A2997 RMK A01 T02290169  RH  069%=      5-min Rain = 0
KMC5 181123Z 18011KT 23/17 A2997 RMK A01 T02290169  RH  069%=      5-min Rain = 0
KMC5 181124Z 18012KT 23/17 A2997 RMK A01 T02290169  RH  069%=      5-min Rain = 0
KMC5 181125Z 18013KT 23/17 A2997 RMK A01 T02280169  RH  069%=      5-min Rain = 0
KMC5 181126Z 18013KT 23/17 A2997 RMK A01 T02280168  RH  069%=      5-min Rain = 0
KMC5 181127Z 18012KT 23/17 A2997 RMK A01 T02290169  RH  069%=      5-min Rain = 0
KMC5 181128Z 18012KT 23/17 A2997 RMK A01 T02290169  RH  069%=      5-min Rain = 0
KMC5 181129Z 18012KT 23/17 A2997 RMK A01 T02290168  RH  069%=      5-min Rain = 0
KMC5 181130Z 18010KT 23/17 A2997 RMK A01 T02300168  RH  068%=      5-min Rain = 0
KMC5 181131Z 18011KT 23/17 A2997 RMK A01 T02290169  RH  069%=      5-min Rain = 0
KMC5 181132Z 18011KT 23/17 A2997 RMK A01 T02290169  RH  069%=      5-min Rain = 0
KMC5 181133Z 18010KT 23/17 A2998 RMK A01 T02280169  RH  069%=      5-min Rain = 0
KMC5 181134Z 18011KT 23/17 A2998 RMK A01 T02280168  RH  069%=      5-min Rain = 0
KMC5 181135Z 18012KT 23/17 A2998 RMK A01 T02280168  RH  069%=      5-min Rain = 0
KMC5 181136Z 18010KT 23/17 A2998 RMK A01 T02280168  RH  069%=      5-min Rain = 0
KMC5 181137Z 18011KT 23/17 A2998 RMK A01 T02280168  RH  069%=      5-min Rain = 0
KMC5 181138Z 18011KT 23/17 A2997 RMK A01 T02270168  RH  069%=      5-min Rain = 0
KMC5 181139Z 18011KT 23/17 A2997 RMK A01 T02270168  RH  069%=      5-min Rain = 0
KMC5 181140Z 18011KT 23/17 A2997 RMK A01 T02260168  RH  070%=      5-min Rain = 0
KMC5 181141Z 18013KT 23/17 A2997 RMK A01 T02260168  RH  070%=      5-min Rain = 0
KMC5 181142Z 18011KT 23/17 A2997 RMK A01 T02260168  RH  069%=      5-min Rain = 0
KMC5 181143Z 18012KT 23/17 A2997 RMK A01 T02270168  RH  069%=      5-min Rain = 0
KMC5 181144Z 18011KT 23/17 A2998 RMK A01 T02270168  RH  069%=      5-min Rain = 0
KMC5 181145Z 18011KT 23/17 A2998 RMK A01 T02270168  RH  069%=      5-min Rain = 0
KMC5 181146Z 18010KT 23/17 A2998 RMK A01 T02270168  RH  069%=      5-min Rain = 0
KMC5 181147Z 19009KT 23/17 A2998 RMK A01 T02270168  RH  069%=      5-min Rain = 0
KMC5 181148Z 18010KT 23/17 A2998 RMK A01 T02260169  RH  070%=      5-min Rain = 0
KMC5 181149Z 18010KT 23/17 A2998 RMK A01 T02250168  RH  070%=      5-min Rain = 0
KMC5 181150Z 18010KT 23/17 A2998 RMK A01 T02250167  RH  070%=      5-min Rain = 0
KMC5 181151Z 18009KT 23/17 A2998 RMK A01 T02260168  RH  070%=      5-min Rain = 0
KMC5 181152Z 18011KT 23/17 A2998 RMK A01 T02250168  RH  070%=      5-min Rain = 0
KMC5 181153Z 18011KT 23/17 A2998 RMK A01 T02250167  RH  070%=      5-min Rain = 0
KMC5 181154Z 18010KT 23/17 A2998 RMK A01 T02260168  RH  070%=      5-min Rain = 0
KMC5 181155Z 18010KT 23/17 A2998 RMK A01 T02260168  RH  070%=      5-min Rain = 0
KMC5 181156Z 18010KT 23/17 A2998 RMK A01 T02250168  RH  070%=      5-min Rain = 0
KMC5 181157Z 18009KT 23/17 A2998 RMK A01 T02250168  RH  070%=      5-min Rain = 0
KMC5 181158Z 18010KT 23/17 A2998 RMK A01 T02250168  RH  070%=      5-min Rain = 0
KMC5 181159Z 18010KT 23/17 A2997 RMK A01 T02250167  RH  070%=      5-min Rain = 0
KMC5 181200Z 18010KT 23/17 A2997 RMK A01 T02260168  RH  070%=      5-min Rain = 0
KMC5 181201Z 18010KT 23/17 A2997 RMK A01 T02260168  RH  070%=      5-min Rain = 0
KMC5 181202Z 18009KT 23/17 A2997 RMK A01 T02260168  RH  070%=      5-min Rain = 0
KMC5 181203Z 18009KT 23/17 A2997 RMK A01 T02250168  RH  070%=      5-min Rain = 0
KMC5 181204Z 18009KT 23/17 A2997 RMK A01 T02250168  RH  070%=      5-min Rain = 0
KMC5 181205Z 18010KT 23/17 A2997 RMK A01 T02250168  RH  070%=      5-min Rain = 0
KMC5 181206Z 18011KT 23/17 A2997 RMK A01 T02250168  RH  070%=      5-min Rain = 0
KMC5 181207Z 18011KT 23/17 A2997 RMK A01 T02250168  RH  070%=      5-min Rain = 0
KMC5 181208Z 18009KT 23/17 A2997 RMK A01 T02250168  RH  070%=      5-min Rain = 0
KMC5 181209Z 18010KT 23/17 A2997 RMK A01 T02250169  RH  070%=      5-min Rain = 0
KMC5 181210Z 18010KT 23/17 A2997 RMK A01 T02250169  RH  071%=      5-min Rain = 0
KMC5 181211Z 18009KT 22/17 A2997 RMK A01 T02240169  RH  071%=      5-min Rain = 0
KMC5 181212Z 18010KT 23/17 A2997 RMK A01 T02250169  RH  071%=      5-min Rain = 0
KMC5 181213Z 18010KT 22/17 A2997 RMK A01 T02240168  RH  070%=      5-min Rain = 0
KMC5 181214Z 18010KT 23/17 A2997 RMK A01 T02250168  RH  070%=      5-min Rain = 0
KMC5 181215Z 18010KT 23/17 A2997 RMK A01 T02250168  RH  070%=      5-min Rain = 0
KMC5 181216Z 18010KT 23/17 A2997 RMK A01 T02260169  RH  070%=      5-min Rain = 0
KMC5 181217Z 18011KT 23/17 A2997 RMK A01 T02260168  RH  070%=      5-min Rain = 0
KMC5 181218Z 18010KT 23/17 A2997 RMK A01 T02270168  RH  070%=      5-min Rain = 0
KMC5 181219Z 18011KT 23/17 A2997 RMK A01 T02270168  RH  069%=      5-min Rain = 0
KMC5 181220Z 18011KT 23/17 A2997 RMK A01 T02280168  RH  069%=      5-min Rain = 0
KMC5 181221Z 18010KT 23/17 A2997 RMK A01 T02290168  RH  069%=      5-min Rain = 0
KMC5 181222Z 18010KT 23/17 A2997 RMK A01 T02290169  RH  069%=      5-min Rain = 0
KMC5 181223Z 18009KT 23/17 A2997 RMK A01 T02290169  RH  069%=      5-min Rain = 0
KMC5 181224Z 18011KT 23/17 A2997 RMK A01 T02290169  RH  069%=      5-min Rain = 0
KMC5 181225Z 18010KT 23/17 A2997 RMK A01 T02290169  RH  069%=      5-min Rain = 0
KMC5 181226Z 18011KT 23/17 A2997 RMK A01 T02300168  RH  068%=      5-min Rain = 0
KMC5 181227Z 18011KT 23/17 A2997 RMK A01 T02310169  RH  068%=      5-min Rain = 0
KMC5 181228Z 18010KT 23/17 A2997 RMK A01 T02300169  RH  068%=      5-min Rain = 0
KMC5 181229Z 18011KT 23/17 A2997 RMK A01 T02310168  RH  068%=      5-min Rain = 0
KMC5 181230Z 18010KT 23/17 A2997 RMK A01 T02310169  RH  068%=      5-min Rain = 0
KMC5 181231Z 19009KT 23/17 A2997 RMK A01 T02310170  RH  068%=      5-min Rain = 0
KMC5 181232Z 18010KT 23/17 A2997 RMK A01 T02310169  RH  068%=      5-min Rain = 0
KMC5 181233Z 18010KT 23/17 A2997 RMK A01 T02310169  RH  068%=      5-min Rain = 0
KMC5 181234Z 18010KT 23/17 A2997 RMK A01 T02320170  RH  068%=      5-min Rain = 0
KMC5 181235Z 19011KT 23/17 A2997 RMK A01 T02320169  RH  068%=      5-min Rain = 0
KMC5 181236Z 18010KT 23/17 A2998 RMK A01 T02320169  RH  068%=      5-min Rain = 0
KMC5 181237Z 19011KT 23/17 A2998 RMK A01 T02320169  RH  067%=      5-min Rain = 0
KMC5 181238Z 19011KT 23/17 A2998 RMK A01 T02330169  RH  067%=      5-min Rain = 0
KMC5 181239Z 19010KT 23/17 A2998 RMK A01 T02330170  RH  068%=      5-min Rain = 0
KMC5 181240Z 19009KT 23/17 A2998 RMK A01 T02330169  RH  067%=      5-min Rain = 0
KMC5 181241Z 19010KT 23/17 A2998 RMK A01 T02330170  RH  067%=      5-min Rain = 0
KMC5 181242Z 19010KT 23/17 A2998 RMK A01 T02340170  RH  067%=      5-min Rain = 0
KMC5 181243Z 19011KT 23/17 A2998 RMK A01 T02340169  RH  067%=      5-min Rain = 0
KMC5 181244Z 19009KT 23/17 A2998 RMK A01 T02340169  RH  067%=      5-min Rain = 0
KMC5 181245Z 19010KT 23/17 A2998 RMK A01 T02340169  RH  067%=      5-min Rain = 0
KMC5 181246Z 18010KT 23/17 A2998 RMK A01 T02340170  RH  067%=      5-min Rain = 0
KMC5 181247Z 18008KT 24/17 A2998 RMK A01 T02350170  RH  067%=      5-min Rain = 0
KMC5 181248Z 18009KT 24/17 A2998 RMK A01 T02350171  RH  067%=      5-min Rain = 0
KMC5 181249Z 18009KT 24/17 A2998 RMK A01 T02350171  RH  067%=      5-min Rain = 0
KMC5 181250Z 18009KT 24/17 A2998 RMK A01 T02360171  RH  067%=      5-min Rain = 0
KMC5 181251Z 18010KT 24/17 A2998 RMK A01 T02360170  RH  066%=      5-min Rain = 0
KMC5 181252Z 18011KT 24/17 A2998 RMK A01 T02370170  RH  066%=      5-min Rain = 0
KMC5 181253Z 18011KT 24/17 A2998 RMK A01 T02370169  RH  066%=      5-min Rain = 0
KMC5 181254Z 18010KT 24/17 A2998 RMK A01 T02370170  RH  066%=      5-min Rain = 0
KMC5 181255Z 18010KT 24/17 A2998 RMK A01 T02380170  RH  066%=      5-min Rain = 0
KMC5 181256Z 18010KT 24/17 A2998 RMK A01 T02380170  RH  066%=      5-min Rain = 0
KMC5 181257Z 18011KT 24/17 A2998 RMK A01 T02380169  RH  065%=      5-min Rain = 0
KMC5 181258Z 18011KT 24/17 A2998 RMK A01 T02390169  RH  065%=      5-min Rain = 0
KMC5 181259Z 18009KT 24/17 A2998 RMK A01 T02390170  RH  065%=      5-min Rain = 0
KMC5 181300Z 18009KT 24/17 A2998 RMK A01 T02400171  RH  066%=      5-min Rain = 0
KMC5 181301Z 19009KT 24/17 A2998 RMK A01 T02400171  RH  065%=      5-min Rain = 0
KMC5 181302Z 19009KT 24/17 A2998 RMK A01 T02410171  RH  065%=      5-min Rain = 0
KMC5 181303Z 18007KT 24/17 A2998 RMK A01 T02420171  RH  065%=      5-min Rain = 0
KMC5 181304Z 19007KT 24/17 A2998 RMK A01 T02420173  RH  065%=      5-min Rain = 0
KMC5 181305Z 19008KT 24/17 A2998 RMK A01 T02430170  RH  064%=      5-min Rain = 0
KMC5 181306Z 19006KT 24/17 A2998 RMK A01 T02440173  RH  065%=      5-min Rain = 0
KMC5 181307Z 19008KT 25/17 A2998 RMK A01 T02450173  RH  064%=      5-min Rain = 0
KMC5 181308Z 19009KT 25/17 A2998 RMK A01 T02460171  RH  063%=      5-min Rain = 0
KMC5 181309Z 19009KT 25/17 A2998 RMK A01 T02470170  RH  063%=      5-min Rain = 0
KMC5 181310Z 19009KT 25/17 A2998 RMK A01 T02470170  RH  062%=      5-min Rain = 0
KMC5 181311Z 19009KT 25/17 A2998 RMK A01 T02470169  RH  062%=      5-min Rain = 0
KMC5 181312Z 20011KT 25/17 A2998 RMK A01 T02480170  RH  062%=      5-min Rain = 0
KMC5 181313Z 20009KT 25/17 A2998 RMK A01 T02480170  RH  062%=      5-min Rain = 0
KMC5 181314Z 20010KT 25/17 A2998 RMK A01 T02480169  RH  061%=      5-min Rain = 0
KMC5 181315Z 19009KT 25/17 A2998 RMK A01 T02490170  RH  062%=      5-min Rain = 0
KMC5 181316Z 19011KT 25/17 A2998 RMK A01 T02490169  RH  061%=      5-min Rain = 0
KMC5 181317Z 19012KT 25/17 A2998 RMK A01 T02500169  RH  061%=      5-min Rain = 0
KMC5 181318Z 20012KT 25/17 A2998 RMK A01 T02500169  RH  061%=      5-min Rain = 0
KMC5 181319Z 19010KT 25/17 A2998 RMK A01 T02500171  RH  062%=      5-min Rain = 0
KMC5 181320Z 19011KT 25/17 A2998 RMK A01 T02510169  RH  060%=      5-min Rain = 0
KMC5 181321Z 19012KT 25/17 A2998 RMK A01 T02510169  RH  061%=      5-min Rain = 0
KMC5 181322Z 19013KT 25/17 A2997 RMK A01 T02510168  RH  060%=      5-min Rain = 0
KMC5 181323Z 18010KT 25/17 A2997 RMK A01 T02510170  RH  061%=      5-min Rain = 0
KMC5 181324Z 18010KT 25/17 A2997 RMK A01 T02520172  RH  061%=      5-min Rain = 0
KMC5 181325Z 18011KT 25/17 A2997 RMK A01 T02530170  RH  060%=      5-min Rain = 0
KMC5 181326Z 19012G17KT 25/17 A2997 RMK A01 T02530170  RH  060%=      5-min Rain = 0
KMC5 181327Z 18011KT 25/17 A2997 RMK A01 T02540172  RH  061%=      5-min Rain = 0
KMC5 181328Z 19010KT 25/17 A2997 RMK A01 T02540172  RH  060%=      5-min Rain = 0
KMC5 181329Z 19012G18KT 26/17 A2997 RMK A01 T02550171  RH  060%=      5-min Rain = 0
KMC5 181330Z 19013KT 26/17 A2997 RMK A01 T02550170  RH  059%=      5-min Rain = 0
KMC5 181331Z 19014KT 26/17 A2997 RMK A01 T02550169  RH  059%=      5-min Rain = 0
KMC5 181332Z 19012KT 26/17 A2997 RMK A01 T02550170  RH  059%=      5-min Rain = 0
KMC5 181333Z 19014KT 26/17 A2997 RMK A01 T02560170  RH  059%=      5-min Rain = 0
KMC5 181334Z 19012KT 26/17 A2997 RMK A01 T02560171  RH  059%=      5-min Rain = 0
KMC5 181335Z 20013KT 26/17 A2997 RMK A01 T02560171  RH  059%=      5-min Rain = 0
KMC5 181336Z 19011KT 26/17 A2997 RMK A01 T02560173  RH  060%=      5-min Rain = 0
KMC5 181337Z 18014KT 26/17 A2997 RMK A01 T02560171  RH  059%=      5-min Rain = 0
KMC5 181338Z 18015KT 26/17 A2997 RMK A01 T02570171  RH  059%=      5-min Rain = 0
KMC5 181339Z 19014KT 26/17 A2997 RMK A01 T02570170  RH  059%=      5-min Rain = 0
KMC5 181340Z 19013KT 26/17 A2997 RMK A01 T02570172  RH  059%=      5-min Rain = 0
KMC5 181341Z 19012KT 26/17 A2997 RMK A01 T02570173  RH  060%=      5-min Rain = 0
KMC5 181342Z 19014KT 26/17 A2997 RMK A01 T02580171  RH  059%=      5-min Rain = 0
KMC5 181343Z 19014KT 26/17 A2997 RMK A01 T02580172  RH  059%=      5-min Rain = 0
KMC5 181344Z 19013KT 26/17 A2997 RMK A01 T02580171  RH  058%=      5-min Rain = 0
KMC5 181345Z 19014KT 26/17 A2997 RMK A01 T02580172  RH  059%=      5-min Rain = 0
KMC5 181346Z 19013KT 26/17 A2997 RMK A01 T02580171  RH  059%=      5-min Rain = 0
KMC5 181347Z 19014KT 26/17 A2997 RMK A01 T02580171  RH  059%=      5-min Rain = 0
KMC5 181348Z 19014KT 26/17 A2997 RMK A01 T02590173  RH  059%=      5-min Rain = 0
KMC5 181349Z 20014KT 26/17 A2997 RMK A01 T02590171  RH  058%=      5-min Rain = 0
KMC5 181350Z 19018KT 26/17 A2997 RMK A01 T02600170  RH  058%=      5-min Rain = 0
KMC5 181351Z 19016KT 26/17 A2997 RMK A01 T02600170  RH  058%=      5-min Rain = 0
KMC5 181352Z 19017KT 26/17 A2997 RMK A01 T02600171  RH  058%=      5-min Rain = 0
KMC5 181353Z 19016KT 26/17 A2997 RMK A01 T02600170  RH  057%=      5-min Rain = 0
KMC5 181354Z 19016KT 26/17 A2997 RMK A01 T02610170  RH  057%=      5-min Rain = 0
KMC5 181355Z 19012KT 26/17 A2997 RMK A01 T02620172  RH  058%=      5-min Rain = 0
KMC5 181356Z 19012KT 26/18 A2997 RMK A01 T02630175  RH  058%=      5-min Rain = 0
KMC5 181357Z 19012KT 26/17 A2997 RMK A01 T02640174  RH  058%=      5-min Rain = 0
KMC5 181358Z 19013KT 27/17 A2997 RMK A01 T02650174  RH  057%=      5-min Rain = 0
KMC5 181359Z 20014KT 27/17 A2997 RMK A01 T02650174  RH  057%=      5-min Rain = 0
KMC5 181400Z 20014KT 27/17 A2997 RMK A01 T02660172  RH  056%=      5-min Rain = 0
KMC5 181401Z 19014G19KT 27/17 A2997 RMK A01 T02660174  RH  057%=      5-min Rain = 0
KMC5 181402Z 20016KT 27/17 A2997 RMK A01 T02660172  RH  056%=      5-min Rain = 0
KMC5 181403Z 20015KT 27/17 A2997 RMK A01 T02660171  RH  056%=      5-min Rain = 0
KMC5 181404Z 20012KT 27/17 A2997 RMK A01 T02660174  RH  057%=      5-min Rain = 0
KMC5 181405Z 20015KT 27/17 A2997 RMK A01 T02670171  RH  056%=      5-min Rain = 0
KMC5 181406Z 20014G19KT 27/17 A2997 RMK A01 T02670172  RH  056%=      5-min Rain = 0
KMC5 181407Z 20014KT 27/17 A2997 RMK A01 T02680172  RH  056%=      5-min Rain = 0
KMC5 181408Z 19013KT 27/17 A2997 RMK A01 T02680173  RH  056%=      5-min Rain = 0
KMC5 181409Z 19013KT 27/17 A2997 RMK A01 T02690173  RH  056%=      5-min Rain = 0
KMC5 181410Z 20014G19KT 27/17 A2997 RMK A01 T02700173  RH  055%=      5-min Rain = 0
KMC5 181411Z 20016KT 27/17 A2997 RMK A01 T02700171  RH  054%=      5-min Rain = 0
KMC5 181412Z 20014KT 27/17 A2997 RMK A01 T02700173  RH  055%=      5-min Rain = 0
KMC5 181413Z 21016KT 27/17 A2997 RMK A01 T02710171  RH  054%=      5-min Rain = 0
KMC5 181414Z 20016KT 27/17 A2997 RMK A01 T02710170  RH  054%=      5-min Rain = 0
KMC5 181415Z 20012KT 27/17 A2997 RMK A01 T02710171  RH  054%=      5-min Rain = 0
KMC5 181416Z 20015KT 27/17 A2997 RMK A01 T02710173  RH  055%=      5-min Rain = 0
KMC5 181417Z 20014KT 27/17 A2997 RMK A01 T02720170  RH  054%=      5-min Rain = 0
KMC5 181418Z 20017KT 27/17 A2997 RMK A01 T02720171  RH  054%=      5-min Rain = 0
KMC5 181419Z 20016KT 27/17 A2997 RMK A01 T02730171  RH  054%=      5-min Rain = 0
KMC5 181420Z 20014KT 27/17 A2997 RMK A01 T02730171  RH  054%=      5-min Rain = 0
KMC5 181421Z 21015KT 27/17 A2997 RMK A01 T02740174  RH  054%=      5-min Rain = 0
KMC5 181422Z 21017KT 27/17 A2997 RMK A01 T02740170  RH  053%=      5-min Rain = 0
KMC5 181423Z 20016KT 28/17 A2997 RMK A01 T02750171  RH  053%=      5-min Rain = 0
KMC5 181424Z 20016KT 28/17 A2997 RMK A01 T02750170  RH  053%=      5-min Rain = 0
KMC5 181425Z 20017KT 28/17 A2997 RMK A01 T02750171  RH  053%=      5-min Rain = 0
KMC5 181426Z 21016KT 28/17 A2997 RMK A01 T02750169  RH  052%=      5-min Rain = 0
KMC5 181427Z 20018KT 28/17 A2997 RMK A01 T02750170  RH  053%=      5-min Rain = 0
KMC5 181428Z 20016KT 28/17 A2997 RMK A01 T02750169  RH  052%=      5-min Rain = 0
KMC5 181429Z 21019G26KT 28/17 A2997 RMK A01 T02750171  RH  053%=      5-min Rain = 0
KMC5 181430Z 20022KT 28/17 A2997 RMK A01 T02750167  RH  052%=      5-min Rain = 0
KMC5 181431Z 20019KT 28/17 A2997 RMK A01 T02750168  RH  052%=      5-min Rain = 0
KMC5 181432Z 21016KT 28/17 A2997 RMK A01 T02750169  RH  053%=      5-min Rain = 0
KMC5 181433Z 21017KT 28/17 A2997 RMK A01 T02760169  RH  052%=      5-min Rain = 0
KMC5 181434Z 21017KT 28/17 A2997 RMK A01 T02760169  RH  052%=      5-min Rain = 0
KMC5 181435Z 20015KT 28/17 A2997 RMK A01 T02760168  RH  052%=      5-min Rain = 0
KMC5 181436Z 20015KT 28/17 A2997 RMK A01 T02760170  RH  052%=      5-min Rain = 0
KMC5 181437Z 20016KT 28/17 A2997 RMK A01 T02770170  RH  052%=      5-min Rain = 0
KMC5 181438Z 20016KT 28/17 A2997 RMK A01 T02780169  RH  051%=      5-min Rain = 0
KMC5 181439Z 21014KT 28/17 A2997 RMK A01 T02780172  RH  052%=      5-min Rain = 0
KMC5 181440Z 19014KT 28/17 A2997 RMK A01 T02800173  RH  052%=      5-min Rain = 0
KMC5 181441Z 20017KT 28/17 A2997 RMK A01 T02810171  RH  051%=      5-min Rain = 0
KMC5 181442Z 21018KT 28/17 A2997 RMK A01 T02810170  RH  051%=      5-min Rain = 0
KMC5 181443Z 20016KT 28/17 A2997 RMK A01 T02810170  RH  051%=      5-min Rain = 0
KMC5 181444Z 21015KT 28/17 A2997 RMK A01 T02810170  RH  051%=      5-min Rain = 0
KMC5 181445Z 20015KT 28/17 A2997 RMK A01 T02800170  RH  051%=      5-min Rain = 0
KMC5 181446Z 20013KT 28/17 A2997 RMK A01 T02810173  RH  052%=      5-min Rain = 0
KMC5 181447Z 20012G17KT 28/17 A2997 RMK A01 T02820173  RH  052%=      5-min Rain = 0
KMC5 181448Z 21017G22KT 28/17 A2997 RMK A01 T02830171  RH  051%=      5-min Rain = 0
KMC5 181449Z 21016KT 28/17 A2997 RMK A01 T02830170  RH  050%=      5-min Rain = 0
KMC5 181450Z 20017KT 28/17 A2997 RMK A01 T02820169  RH  050%=      5-min Rain = 0
KMC5 181451Z 20016KT 28/17 A2997 RMK A01 T02820171  RH  051%=      5-min Rain = 0
KMC5 181452Z 20015G20KT 28/17 A2997 RMK A01 T02820171  RH  051%=      5-min Rain = 0
KMC5 181453Z 20017KT 28/17 A2997 RMK A01 T02830170  RH  050%=      5-min Rain = 0
KMC5 181454Z 20015KT 28/17 A2997 RMK A01 T02840170  RH  050%=      5-min Rain = 0
KMC5 181455Z 20016G21KT 28/17 A2997 RMK A01 T02840172  RH  051%=      5-min Rain = 0
KMC5 181456Z 20017KT 29/17 A2997 RMK A01 T02860170  RH  049%=      5-min Rain = 0
KMC5 181457Z 20018KT 29/17 A2997 RMK A01 T02860168  RH  049%=      5-min Rain = 0
KMC5 181458Z 21018KT 29/17 A2997 RMK A01 T02860169  RH  049%=      5-min Rain = 0
KMC5 181459Z 21014G19KT 29/17 A2997 RMK A01 T02860171  RH  050%=      5-min Rain = 0
KMC5 181500Z 20016KT 29/17 A2997 RMK A01 T02870170  RH  049%=      5-min Rain = 0
KMC5 181501Z 20016KT 29/17 A2997 RMK A01 T02870170  RH  049%=      5-min Rain = 0
KMC5 181502Z 20014KT 29/17 A2997 RMK A01 T02860169  RH  049%=      5-min Rain = 0
KMC5 181503Z 20012KT 29/17 A2997 RMK A01 T02870174  RH  050%=      5-min Rain = 0
KMC5 181504Z 21013KT 29/17 A2997 RMK A01 T02880174  RH  050%=      5-min Rain = 0
KMC5 181505Z 21015KT 29/17 A2997 RMK A01 T02900171  RH  049%=      5-min Rain = 0
KMC5 181506Z 21018KT 29/17 A2997 RMK A01 T02900168  RH  048%=      5-min Rain = 0
KMC5 181507Z 21016KT 29/17 A2997 RMK A01 T02900169  RH  048%=      5-min Rain = 0
KMC5 181508Z 21016KT 29/17 A2997 RMK A01 T02910167  RH  047%=      5-min Rain = 0
KMC5 181509Z 20015KT 29/17 A2997 RMK A01 T02910170  RH  048%=      5-min Rain = 0
KMC5 181510Z 20015KT 29/17 A2997 RMK A01 T02920171  RH  048%=      5-min Rain = 0
KMC5 181511Z 21012G17KT 29/17 A2997 RMK A01 T02930170  RH  048%=      5-min Rain = 0
KMC5 181512Z 21013KT 29/17 A2997 RMK A01 T02930171  RH  048%=      5-min Rain = 0
KMC5 181513Z 21012KT 30/17 A2997 RMK A01 T02950171  RH  047%=      5-min Rain = 0
KMC5 181514Z 21012KT 30/17 A2997 RMK A01 T02960171  RH  047%=      5-min Rain = 0
KMC5 181515Z 20010KT 30/17 A2997 RMK A01 T02960172  RH  047%=      5-min Rain = 0
KMC5 181516Z 19011KT 30/18 A2997 RMK A01 T02980178  RH  048%=      5-min Rain = 0
KMC5 181517Z 20015KT 30/17 A2997 RMK A01 T03000172  RH  046%=      5-min Rain = 0
KMC5 181518Z 20015KT 30/17 A2997 RMK A01 T02970169  RH  046%=      5-min Rain = 0
KMC5 181519Z 20015KT 30/17 A2997 RMK A01 T02960172  RH  047%=      5-min Rain = 0
KMC5 181520Z 20015KT 30/17 A2997 RMK A01 T02960171  RH  047%=      5-min Rain = 0
KMC5 181521Z 20011KT 30/17 A2997 RMK A01 T02950174  RH  048%=      5-min Rain = 0
KMC5 181522Z 19013KT 30/18 A2997 RMK A01 T02960177  RH  049%=      5-min Rain = 0
KMC5 181523Z 18011KT 30/18 A2997 RMK A01 T02980175  RH  048%=      5-min Rain = 0
KMC5 181524Z 19011G16KT 30/18 A2997 RMK A01 T02990181  RH  049%=      5-min Rain = 0
KMC5 181525Z 20016KT 30/17 A2996 RMK A01 T03020174  RH  046%=      5-min Rain = 0
KMC5 181526Z 20017KT 30/17 A2996 RMK A01 T03010168  RH  045%=      5-min Rain = 0
KMC5 181527Z 19013KT 30/17 A2997 RMK A01 T02990168  RH  045%=      5-min Rain = 0
KMC5 181528Z 19014KT 30/17 A2997 RMK A01 T02990173  RH  047%=      5-min Rain = 0
KMC5 181529Z 19014G19KT 30/17 A2996 RMK A01 T03010168  RH  045%=      5-min Rain = 0
KMC5 181530Z 19016KT 30/17 A2996 RMK A01 T03020168  RH  045%=      5-min Rain = 0
KMC5 181531Z 19016KT 30/17 A2996 RMK A01 T03020167  RH  044%=      5-min Rain = 0
KMC5 181532Z 21015KT 30/17 A2996 RMK A01 T03020166  RH  044%=      5-min Rain = 0
KMC5 181533Z 21014KT 30/17 A2997 RMK A01 T03020168  RH  044%=      5-min Rain = 0
KMC5 181534Z 20013KT 30/17 A2997 RMK A01 T03020167  RH  044%=      5-min Rain = 0
KMC5 181535Z 19011KT 30/17 A2997 RMK A01 T03030169  RH  045%=      5-min Rain = 0
KMC5 181536Z 20011KT 30/18 A2997 RMK A01 T03030176  RH  047%=      5-min Rain = 0
KMC5 181537Z 18011KT 31/18 A2997 RMK A01 T03050179  RH  047%=      5-min Rain = 0
KMC5 181538Z 17013KT 31/18 A2997 RMK A01 T03050177  RH  046%=      5-min Rain = 0
KMC5 181539Z 17014KT 31/18 A2997 RMK A01 T03050177  RH  047%=      5-min Rain = 0
KMC5 181540Z 18015KT 31/18 A2997 RMK A01 T03050175  RH  046%=      5-min Rain = 0
KMC5 181541Z 18013KT 30/18 A2997 RMK A01 T03030175  RH  046%=      5-min Rain = 0
KMC5 181542Z 19014KT 30/17 A2997 RMK A01 T03030173  RH  046%=      5-min Rain = 0
KMC5 181543Z 21010KT 30/17 A2996 RMK A01 T03020172  RH  045%=      5-min Rain = 0
KMC5 181544Z 22013KT 30/17 A2996 RMK A01 T03030172  RH  045%=      5-min Rain = 0
KMC5 181545Z 19012KT 31/18 A2996 RMK A01 T03050175  RH  046%=      5-min Rain = 0
KMC5 181546Z 18012KT 31/18 A2996 RMK A01 T03060178  RH  046%=      5-min Rain = 0
KMC5 181547Z 19012KT 31/18 A2996 RMK A01 T03070176  RH  046%=      5-min Rain = 0
KMC5 181548Z 18011KT 31/18 A2996 RMK A01 T03060179  RH  047%=      5-min Rain = 0
KMC5 181549Z 19014G20KT 31/18 A2996 RMK A01 T03080178  RH  046%=      5-min Rain = 0
KMC5 181550Z 19016KT 31/17 A2996 RMK A01 T03070171  RH  044%=      5-min Rain = 0
KMC5 181551Z 19015KT 30/17 A2996 RMK A01 T03040171  RH  045%=      5-min Rain = 0
KMC5 181552Z 18011KT 30/18 A2996 RMK A01 T03030175  RH  046%=      5-min Rain = 0
KMC5 181553Z 20010KT 30/18 A2996 RMK A01 T03040178  RH  047%=      5-min Rain = 0
KMC5 181554Z 20011KT 31/18 A2996 RMK A01 T03060180  RH  047%=      5-min Rain = 0
KMC5 181555Z 19011KT 31/18 A2996 RMK A01 T03070180  RH  047%=      5-min Rain = 0
KMC5 181556Z 18013KT 31/18 A2996 RMK A01 T03070178  RH  046%=      5-min Rain = 0
KMC5 181557Z 19014KT 31/18 A2996 RMK A01 T03050175  RH  046%=      5-min Rain = 0
KMC5 181558Z 18014KT 30/18 A2996 RMK A01 T03040175  RH  046%=      5-min Rain = 0
KMC5 181559Z 17013KT 31/18 A2997 RMK A01 T03050178  RH  047%=      5-min Rain = 0
KMC5 181600Z 18014KT 31/18 A2996 RMK A01 T03070177  RH  046%=      5-min Rain = 0
KMC5 181601Z 19014KT 31/18 A2997 RMK A01 T03080175  RH  045%=      5-min Rain = 0
KMC5 181602Z 18012KT 31/18 A2997 RMK A01 T03080176  RH  045%=      5-min Rain = 0
KMC5 181603Z 19010KT 31/18 A2997 RMK A01 T03080176  RH  045%=      5-min Rain = 0
KMC5 181604Z 19010KT 31/18 A2997 RMK A01 T03070181  RH  047%=      5-min Rain = 0
KMC5 181605Z 18012KT 31/18 A2997 RMK A01 T03090180  RH  046%=      5-min Rain = 0
KMC5 181606Z 20012KT 31/18 A2997 RMK A01 T03090180  RH  046%=      5-min Rain = 0
KMC5 181607Z 21012KT 31/18 A2997 RMK A01 T03080176  RH  045%=      5-min Rain = 0
KMC5 181608Z 19012KT 31/18 A2997 RMK A01 T03080177  RH  046%=      5-min Rain = 0
KMC5 181609Z 18012KT 31/18 A2997 RMK A01 T03090176  RH  045%=      5-min Rain = 0
KMC5 181610Z 17015G20KT 31/18 A2997 RMK A01 T03090180  RH  046%=      5-min Rain = 0
KMC5 181611Z 17016KT 31/18 A2996 RMK A01 T03100175  RH  045%=      5-min Rain = 0
KMC5 181612Z 18014KT 31/18 A2996 RMK A01 T03090181  RH  046%=      5-min Rain = 0
KMC5 181613Z 19013KT 31/18 A2996 RMK A01 T03100176  RH  045%=      5-min Rain = 0
KMC5 181614Z 18010KT 31/18 A2997 RMK A01 T03090181  RH  046%=      5-min Rain = 0
KMC5 181615Z 18013KT 31/18 A2996 RMK A01 T03100181  RH  046%=      5-min Rain = 0
KMC5 181616Z 18011KT 31/18 A2996 RMK A01 T03120181  RH  046%=      5-min Rain = 0
KMC5 181617Z 18011KT 31/18 A2996 RMK A01 T03140182  RH  045%=      5-min Rain = 0
KMC5 181618Z 18014KT 32/18 A2996 RMK A01 T03150178  RH  044%=      5-min Rain = 0
KMC5 181619Z 19013KT 32/18 A2996 RMK A01 T03150179  RH  044%=      5-min Rain = 0
KMC5 181620Z 18012KT 32/18 A2996 RMK A01 T03150179  RH  044%=      5-min Rain = 0
KMC5 181621Z 18013KT 32/18 A2996 RMK A01 T03150179  RH  044%=      5-min Rain = 0
KMC5 181622Z 19014KT 32/18 A2996 RMK A01 T03150177  RH  044%=      5-min Rain = 0
KMC5 181623Z 18015KT 31/18 A2996 RMK A01 T03140177  RH  044%=      5-min Rain = 0
KMC5 181624Z 18014KT 31/18 A2996 RMK A01 T03130175  RH  044%=      5-min Rain = 0
KMC5 181625Z 19012KT 31/17 A2996 RMK A01 T03120172  RH  043%=      5-min Rain = 0
KMC5 181626Z 19014G19KT 31/18 A2996 RMK A01 T03120175  RH  044%=      5-min Rain = 0
KMC5 181627Z 20014KT 31/17 A2996 RMK A01 T03140172  RH  043%=      5-min Rain = 0
KMC5 181628Z 20015KT 32/17 A2996 RMK A01 T03160168  RH  041%=      5-min Rain = 0
KMC5 181629Z 20014KT 32/17 A2996 RMK A01 T03170167  RH  041%=      5-min Rain = 0
KMC5 181630Z 19014KT 32/17 A2996 RMK A01 T03160173  RH  042%=      5-min Rain = 0
KMC5 181631Z 17015KT 32/18 A2996 RMK A01 T03170175  RH  043%=      5-min Rain = 0
KMC5 181632Z 16012KT 32/18 A2996 RMK A01 T03170179  RH  044%=      5-min Rain = 0
KMC5 181633Z 18011G16KT 32/18 A2996 RMK A01 T03190182  RH  044%=      5-min Rain = 0
KMC5 181634Z 18013KT 32/18 A2996 RMK A01 T03210176  RH  042%=      5-min Rain = 0
KMC5 181635Z 18011G17KT 32/18 A2996 RMK A01 T03200179  RH  043%=      5-min Rain = 0
KMC5 181636Z 18014KT 32/18 A2996 RMK A01 T03200178  RH  043%=      5-min Rain = 0
KMC5 181637Z 17013KT 32/18 A2996 RMK A01 T03190181  RH  044%=      5-min Rain = 0
KMC5 181638Z 19012KT 32/18 A2996 RMK A01 T03190181  RH  044%=      5-min Rain = 0
KMC5 181639Z 20009G14KT 32/18 A2996 RMK A01 T03200182  RH  044%=      5-min Rain = 0
KMC5 181640Z 17015KT 32/18 A2996 RMK A01 T03210177  RH  042%=      5-min Rain = 0
KMC5 181641Z 17016KT 32/17 A2996 RMK A01 T03210174  RH  041%=      5-min Rain = 0
KMC5 181642Z 18016KT 32/17 A2996 RMK A01 T03210173  RH  041%=      5-min Rain = 0
KMC5 181643Z 19014KT 32/17 A2996 RMK A01 T03210170  RH  040%=      5-min Rain = 0
KMC5 181644Z 17016KT 32/17 A2996 RMK A01 T03210167  RH  040%=      5-min Rain = 0
KMC5 181645Z 19016KT 32/17 A2996 RMK A01 T03210168  RH  040%=      5-min Rain = 0
KMC5 181646Z 19015KT 32/17 A2996 RMK A01 T03220166  RH  039%=      5-min Rain = 0
KMC5 181647Z 19016KT 32/17 A2996 RMK A01 T03230168  RH  040%=      5-min Rain = 0
KMC5 181648Z 18015KT 32/17 A2996 RMK A01 T03240166  RH  039%=      5-min Rain = 0
KMC5 181649Z 18016KT 32/17 A2996 RMK A01 T03240167  RH  039%=      5-min Rain = 0
KMC5 181650Z 18019KT 32/17 A2996 RMK A01 T03240166  RH  039%=      5-min Rain = 0
KMC5 181651Z 19016KT 32/17 A2996 RMK A01 T03240165  RH  038%=      5-min Rain = 0
KMC5 181652Z 21014KT 32/16 A2996 RMK A01 T03240164  RH  038%=      5-min Rain = 0
KMC5 181653Z 19012KT 32/17 A2996 RMK A01 T03240166  RH  039%=      5-min Rain = 0
KMC5 181654Z 19013KT 32/17 A2996 RMK A01 T03240165  RH  038%=      5-min Rain = 0
KMC5 181655Z 17011G16KT 32/17 A2996 RMK A01 T03240171  RH  040%=      5-min Rain = 0
KMC5 181656Z 19015G20KT 33/17 A2996 RMK A01 T03280174  RH  040%=      5-min Rain = 0
KMC5 181657Z 20016KT 33/17 A2995 RMK A01 T03290167  RH  038%=      5-min Rain = 0
KMC5 181658Z 19013KT 33/17 A2996 RMK A01 T03290169  RH  038%=      5-min Rain = 0
KMC5 181659Z 19013KT 33/17 A2996 RMK A01 T03290174  RH  040%=      5-min Rain = 0
KMC5 181700Z 19015KT 33/17 A2996 RMK A01 T03290167  RH  038%=      5-min Rain = 0
KMC5 181701Z 19014KT 33/17 A2996 RMK A01 T03260168  RH  039%=      5-min Rain = 0
KMC5 181702Z 20018KT 33/17 A2996 RMK A01 T03260166  RH  038%=      5-min Rain = 0
KMC5 181703Z 21016KT 33/17 A2996 RMK A01 T03270165  RH  038%=      5-min Rain = 0
KMC5 181704Z 21014KT 33/16 A2996 RMK A01 T03270163  RH  038%=      5-min Rain = 0
KMC5 181705Z 21011KT 33/17 A2996 RMK A01 T03260170  RH  039%=      5-min Rain = 0
KMC5 181706Z 21012KT 33/17 A2996 RMK A01 T03290170  RH  039%=      5-min Rain = 0
KMC5 181707Z 19015KT 33/17 A2996 RMK A01 T03300168  RH  038%=      5-min Rain = 0
KMC5 181708Z 18015KT 33/17 A2996 RMK A01 T03290172  RH  039%=      5-min Rain = 0
KMC5 181709Z 18015KT 33/17 A2995 RMK A01 T03290166  RH  038%=      5-min Rain = 0
KMC5 181710Z 18014KT 33/17 A2995 RMK A01 T03280170  RH  039%=      5-min Rain = 0
KMC5 181711Z 19013KT 33/17 A2995 RMK A01 T03280172  RH  040%=      5-min Rain = 0
KMC5 181712Z 20015KT 33/17 A2995 RMK A01 T03290169  RH  038%=      5-min Rain = 0
KMC5 181713Z 21015KT 33/17 A2995 RMK A01 T03310169  RH  038%=      5-min Rain = 0
KMC5 181714Z 20015KT 33/17 A2995 RMK A01 T03310167  RH  038%=      5-min Rain = 0
KMC5 181715Z 21015KT 33/17 A2995 RMK A01 T03310166  RH  037%=      5-min Rain = 0
KMC5 181716Z 20013KT 33/17 A2995 RMK A01 T03300168  RH  038%=      5-min Rain = 0
KMC5 181717Z 19013KT 33/17 A2995 RMK A01 T03320170  RH  038%=      5-min Rain = 0
KMC5 181718Z 20016G21KT 33/17 A2995 RMK A01 T03330171  RH  038%=      5-min Rain = 0
KMC5 181719Z 19017KT 33/17 A2995 RMK A01 T03320166  RH  037%=      5-min Rain = 0
KMC5 181720Z 19016KT 33/17 A2995 RMK A01 T03300168  RH  038%=      5-min Rain = 0
KMC5 181721Z 19014KT 33/17 A2995 RMK A01 T03300169  RH  038%=      5-min Rain = 0
KMC5 181722Z 18013KT 33/17 A2995 RMK A01 T03300174  RH  039%=      5-min Rain = 0
KMC5 181723Z 18016KT 33/17 A2995 RMK A01 T03320169  RH  038%=      5-min Rain = 0
KMC5 181724Z 17019KT 33/17 A2995 RMK A01 T03310167  RH  038%=      5-min Rain = 0
KMC5 181725Z 18018KT 33/17 A2995 RMK A01 T03310169  RH  038%=      5-min Rain = 0
KMC5 181726Z 18016KT 33/17 A2995 RMK A01 T03300165  RH  037%=      5-min Rain = 0
KMC5 181727Z 17014KT 33/16 A2995 RMK A01 T03290164  RH  037%=      5-min Rain = 0
KMC5 181728Z 19016G21KT 33/17 A2995 RMK A01 T03300167  RH  038%=      5-min Rain = 0
KMC5 181729Z 18016KT 33/17 A2995 RMK A01 T03310166  RH  037%=      5-min Rain = 0
KMC5 181730Z 18014KT 33/17 A2995 RMK A01 T03310167  RH  037%=      5-min Rain = 0
KMC5 181731Z 19013KT 33/17 A2995 RMK A01 T03310170  RH  038%=      5-min Rain = 0
KMC5 181732Z 19011KT 33/17 A2995 RMK A01 T03310166  RH  037%=      5-min Rain = 0
KMC5 181733Z 17016KT 33/17 A2995 RMK A01 T03310169  RH  038%=      5-min Rain = 0
KMC5 181734Z 18016G22KT 33/17 A2995 RMK A01 T03310166  RH  037%=      5-min Rain = 0
KMC5 181735Z 17016G21KT 33/17 A2995 RMK A01 T03300167  RH  038%=      5-min Rain = 0
KMC5 181736Z 18016G22KT 33/17 A2995 RMK A01 T03310167  RH  038%=      5-min Rain = 0
KMC5 181737Z 17015KT 33/17 A2995 RMK A01 T03300166  RH  038%=      5-min Rain = 0
KMC5 181738Z 17014KT 33/17 A2995 RMK A01 T03290167  RH  038%=      5-min Rain = 0
KMC5 181739Z 17014KT 33/17 A2995 RMK A01 T03290169  RH  038%=      5-min Rain = 0
KMC5 181740Z 17017G22KT 33/17 A2995 RMK A01 T03310170  RH  038%=      5-min Rain = 0
KMC5 181741Z 17018KT 33/17 A2994 RMK A01 T03330166  RH  037%=      5-min Rain = 0
KMC5 181742Z 18013KT 33/17 A2995 RMK A01 T03340171  RH  038%=      5-min Rain = 0
KMC5 181743Z 19014KT 34/17 A2995 RMK A01 T03360171  RH  038%=      5-min Rain = 0
KMC5 181744Z 19015KT 34/17 A2995 RMK A01 T03370168  RH  037%=      5-min Rain = 0
KMC5 181745Z 19014KT 34/17 A2995 RMK A01 T03350167  RH  037%=      5-min Rain = 0
KMC5 181746Z 17014KT 33/17 A2994 RMK A01 T03340169  RH  037%=      5-min Rain = 0
KMC5 181747Z 16015KT 33/17 A2994 RMK A01 T03340166  RH  037%=      5-min Rain = 0
KMC5 181748Z 16013KT 33/17 A2994 RMK A01 T03330167  RH  037%=      5-min Rain = 0
KMC5 181749Z 16015KT 33/17 A2994 RMK A01 T03330166  RH  037%=      5-min Rain = 0
KMC5 181750Z 16015KT 33/17 A2994 RMK A01 T03340172  RH  038%=      5-min Rain = 0
KMC5 181751Z 17015KT 34/17 A2994 RMK A01 T03370171  RH  037%=      5-min Rain = 0
KMC5 181752Z 16015G20KT 34/17 A2994 RMK A01 T03380174  RH  038%=      5-min Rain = 0
KMC5 181753Z 17016KT 34/17 A2994 RMK A01 T03380168  RH  036%=      5-min Rain = 0
KMC5 181754Z 18012KT 34/17 A2994 RMK A01 T03360171  RH  038%=      5-min Rain = 0
KMC5 181755Z 18015KT 34/17 A2994 RMK A01 T03360171  RH  037%=      5-min Rain = 0
KMC5 181756Z 16013G19KT 34/17 A2994 RMK A01 T03380173  RH  038%=      5-min Rain = 0
KMC5 181757Z 16016KT 34/17 A2994 RMK A01 T03390174  RH  037%=      5-min Rain = 0
KMC5 181758Z 16018KT 34/17 A2994 RMK A01 T03390171  RH  037%=      5-min Rain = 0
KMC5 181759Z 17016KT 34/17 A2994 RMK A01 T03390167  RH  036%=      5-min Rain = 0
KMC5 181800Z 17014KT 34/17 A2994 RMK A01 T03370168  RH  036%=      5-min Rain = 0
KMC5 181801Z 17016G22KT 34/17 A2994 RMK A01 T03370173  RH  038%=      5-min Rain = 0
KMC5 181802Z 16017KT 34/17 A2994 RMK A01 T03380168  RH  036%=      5-min Rain = 0
KMC5 181803Z 18014KT 34/17 A2994 RMK A01 T03380172  RH  037%=      5-min Rain = 0
KMC5 181804Z 18011KT 34/17 A2994 RMK A01 T03380172  RH  037%=      5-min Rain = 0
KMC5 181805Z 16011KT 34/17 A2994 RMK A01 T03390172  RH  037%=      5-min Rain = 0
KMC5 181806Z 17011KT 34/17 A2994 RMK A01 T03390173  RH  037%=      5-min Rain = 0
KMC5 181807Z 19013KT 34/18 A2994 RMK A01 T03400178  RH  038%=      5-min Rain = 0
KMC5 181808Z 19016KT 34/17 A2994 RMK A01 T03440174  RH  037%=      5-min Rain = 0
KMC5 181809Z 17014KT 34/17 A2994 RMK A01 T03440174  RH  037%=      5-min Rain = 0
KMC5 181810Z 17015KT 34/17 A2994 RMK A01 T03430170  RH  036%=      5-min Rain = 0
KMC5 181811Z 17013KT 34/16 A2994 RMK A01 T03420162  RH  034%=      5-min Rain = 0
KMC5 181812Z 18012KT 34/17 A2994 RMK A01 T03390171  RH  037%=      5-min Rain = 0
KMC5 181813Z 18015KT 34/17 A2994 RMK A01 T03400170  RH  036%=      5-min Rain = 0
KMC5 181814Z 17013KT 34/17 A2994 RMK A01 T03400171  RH  037%=      5-min Rain = 0
KMC5 181815Z 17011KT 34/17 A2994 RMK A01 T03400170  RH  036%=      5-min Rain = 0
KMC5 181816Z 17012G17KT 34/17 A2994 RMK A01 T03390174  RH  037%=      5-min Rain = 0
KMC5 181817Z 17018KT 34/17 A2994 RMK A01 T03400171  RH  037%=      5-min Rain = 0
KMC5 181818Z 16014KT 34/17 A2994 RMK A01 T03390168  RH  036%=      5-min Rain = 0
KMC5 181819Z 17013KT 34/17 A2994 RMK A01 T03380169  RH  037%=      5-min Rain = 0
KMC5 181820Z 18014KT 34/17 A2994 RMK A01 T03380171  RH  037%=      5-min Rain = 0
KMC5 181821Z 17013KT 34/17 A2994 RMK A01 T03380170  RH  037%=      5-min Rain = 0
KMC5 181822Z 17016KT 34/17 A2994 RMK A01 T03390171  RH  037%=      5-min Rain = 0
KMC5 181823Z 15014KT 34/17 A2993 RMK A01 T03400169  RH  036%=      5-min Rain = 0
KMC5 181824Z 15014KT 34/17 A2993 RMK A01 T03400170  RH  036%=      5-min Rain = 0
KMC5 181825Z 15016G21KT 34/17 A2993 RMK A01 T03410167  RH  036%=      5-min Rain = 0
KMC5 181826Z 17020G28KT 34/17 A2993 RMK A01 T03410168  RH  036%=      5-min Rain = 0
KMC5 181827Z 17018KT 34/17 A2993 RMK A01 T03410170  RH  036%=      5-min Rain = 0
KMC5 181828Z 17016KT 34/17 A2993 RMK A01 T03410170  RH  036%=      5-min Rain = 0
KMC5 181829Z 16018KT 34/17 A2993 RMK A01 T03410169  RH  036%=      5-min Rain = 0
KMC5 181830Z 16013KT 34/17 A2993 RMK A01 T03400166  RH  035%=      5-min Rain = 0
KMC5 181831Z 17013KT 34/17 A2993 RMK A01 T03380169  RH  036%=      5-min Rain = 0
KMC5 181832Z 17015KT 34/18 A2993 RMK A01 T03400175  RH  038%=      5-min Rain = 0
KMC5 181833Z 17017G23KT 34/17 A2993 RMK A01 T03430173  RH  037%=      5-min Rain = 0
KMC5 181834Z 17018KT 34/17 A2993 RMK A01 T03430170  RH  036%=      5-min Rain = 0
KMC5 181835Z 17017G22KT 34/17 A2993 RMK A01 T03430170  RH  036%=      5-min Rain = 0
KMC5 181836Z 19019KT 34/17 A2993 RMK A01 T03440166  RH  035%=      5-min Rain = 0
KMC5 181837Z 18017KT 34/17 A2993 RMK A01 T03430167  RH  035%=      5-min Rain = 0
KMC5 181838Z 18015KT 34/17 A2993 RMK A01 T03430174  RH  037%=      5-min Rain = 0
KMC5 181839Z 18013KT 35/17 A2993 RMK A01 T03450174  RH  036%=      5-min Rain = 0
KMC5 181840Z 20013KT 35/17 A2993 RMK A01 T03460173  RH  036%=      5-min Rain = 0
KMC5 181841Z 19014G21KT 35/17 A2993 RMK A01 T03460168  RH  035%=      5-min Rain = 0
KMC5 181842Z 17016G21KT 35/17 A2993 RMK A01 T03460173  RH  036%=      5-min Rain = 0
KMC5 181843Z 19016KT 35/17 A2993 RMK A01 T03470173  RH  036%=      5-min Rain = 0
KMC5 181844Z 17016KT 35/18 A2993 RMK A01 T03460176  RH  037%=      5-min Rain = 0
KMC5 181845Z 16014KT 35/18 A2993 RMK A01 T03460176  RH  037%=      5-min Rain = 0
KMC5 181846Z 15014KT 35/18 A2993 RMK A01 T03460176  RH  037%=      5-min Rain = 0
KMC5 181847Z 15015G21KT 35/17 A2992 RMK A01 T03460174  RH  036%=      5-min Rain = 0
KMC5 181848Z 15017KT 34/17 A2992 RMK A01 T03440173  RH  036%=      5-min Rain = 0
KMC5 181849Z 16015KT 34/18 A2992 RMK A01 T03430176  RH  037%=      5-min Rain = 0
KMC5 181850Z 15019KT 34/17 A2992 RMK A01 T03440170  RH  036%=      5-min Rain = 0
KMC5 181851Z 16018KT 34/17 A2992 RMK A01 T03420167  RH  035%=      5-min Rain = 0
KMC5 181852Z 16019KT 34/17 A2992 RMK A01 T03390166  RH  036%=      5-min Rain = 0
KMC5 181853Z 17012KT 34/17 A2992 RMK A01 T03370167  RH  036%=      5-min Rain = 0
KMC5 181854Z 18014KT 34/17 A2992 RMK A01 T03370172  RH  037%=      5-min Rain = 0
KMC5 181855Z 16014KT 34/17 A2992 RMK A01 T03370171  RH  037%=      5-min Rain = 0
KMC5 181856Z 15015KT 34/17 A2992 RMK A01 T03360167  RH  036%=      5-min Rain = 0
KMC5 181857Z 17017KT 34/17 A2992 RMK A01 T03360169  RH  037%=      5-min Rain = 0
KMC5 181858Z 18016KT 34/17 A2992 RMK A01 T03360171  RH  037%=      5-min Rain = 0
KMC5 181859Z 17015KT 34/18 A2992 RMK A01 T03370175  RH  038%=      5-min Rain = 0
KMC5 181900Z 18017KT 34/17 A2993 RMK A01 T03400171  RH  037%=      5-min Rain = 0
KMC5 181901Z 18013KT 34/17 A2992 RMK A01 T03400171  RH  036%=      5-min Rain = 0
KMC5 181902Z 18010KT 34/17 A2992 RMK A01 T03410169  RH  036%=      5-min Rain = 0
KMC5 181903Z 17012KT 34/17 A2992 RMK A01 T03400171  RH  036%=      5-min Rain = 0
KMC5 181904Z 19011KT 34/17 A2992 RMK A01 T03400170  RH  036%=      5-min Rain = 0
KMC5 181905Z 16015KT 34/17 A2992 RMK A01 T03400173  RH  037%=      5-min Rain = 0
KMC5 181906Z 15016KT 34/17 A2992 RMK A01 T03390169  RH  036%=      5-min Rain = 0
KMC5 181907Z 17019KT 34/17 A2992 RMK A01 T03390170  RH  037%=      5-min Rain = 0
KMC5 181908Z 18016KT 34/17 A2992 RMK A01 T03410168  RH  036%=      5-min Rain = 0
KMC5 181909Z 17017KT 34/17 A2992 RMK A01 T03420169  RH  036%=      5-min Rain = 0
KMC5 181910Z 16017KT 34/17 A2992 RMK A01 T03400168  RH  036%=      5-min Rain = 0
KMC5 181911Z 16017KT 34/17 A2992 RMK A01 T03390166  RH  036%=      5-min Rain = 0
KMC5 181912Z 16013KT 34/17 A2992 RMK A01 T03390169  RH  036%=      5-min Rain = 0
KMC5 181913Z 17012KT 34/18 A2992 RMK A01 T03390175  RH  038%=      5-min Rain = 0
KMC5 181914Z 16012KT 34/17 A2992 RMK A01 T03400174  RH  037%=      5-min Rain = 0
KMC5 181915Z 17016KT 34/17 A2992 RMK A01 T03400172  RH  037%=      5-min Rain = 0
KMC5 181916Z 16021KT 34/17 A2992 RMK A01 T03400166  RH  036%=      5-min Rain = 0
KMC5 181917Z 17017KT 34/17 A2992 RMK A01 T03400167  RH  036%=      5-min Rain = 0
KMC5 181918Z 20015KT 34/17 A2992 RMK A01 T03400168  RH  036%=      5-min Rain = 0
KMC5 181919Z 18011KT 34/17 A2992 RMK A01 T03410174  RH  037%=      5-min Rain = 0
KMC5 181920Z 15011KT 34/17 A2992 RMK A01 T03420173  RH  037%=      5-min Rain = 0
KMC5 181921Z 14014KT 34/18 A2992 RMK A01 T03430175  RH  037%=      5-min Rain = 0
KMC5 181922Z 13016G23KT 34/17 A2991 RMK A01 T03440171  RH  036%=      5-min Rain = 0
KMC5 181923Z 13017G24KT 34/17 A2991 RMK A01 T03420169  RH  036%=      5-min Rain = 0
KMC5 181924Z 15015KT 34/17 A2992 RMK A01 T03410171  RH  036%=      5-min Rain = 0
KMC5 181925Z 17014KT 34/17 A2992 RMK A01 T03410168  RH  036%=      5-min Rain = 0
KMC5 181926Z 18016KT 34/17 A2991 RMK A01 T03410169  RH  036%=      5-min Rain = 0
KMC5 181927Z 17018KT 34/17 A2991 RMK A01 T03400171  RH  037%=      5-min Rain = 0
KMC5 181928Z 16018G24KT 34/17 A2992 RMK A01 T03400166  RH  035%=      5-min Rain = 0
KMC5 181929Z 16018KT 34/17 A2992 RMK A01 T03420169  RH  036%=      5-min Rain = 0
KMC5 181930Z 16018KT 34/17 A2991 RMK A01 T03440169  RH  035%=      5-min Rain = 0
KMC5 181931Z 15019KT 34/17 A2991 RMK A01 T03440169  RH  035%=      5-min Rain = 0
KMC5 181932Z 15016KT 34/17 A2992 RMK A01 T03440170  RH  036%=      5-min Rain = 0
KMC5 181933Z 17012KT 34/17 A2992 RMK A01 T03430169  RH  035%=      5-min Rain = 0
KMC5 181934Z 18012KT 34/17 A2991 RMK A01 T03430169  RH  035%=      5-min Rain = 0
KMC5 181935Z 19014KT 34/17 A2992 RMK A01 T03440173  RH  036%=      5-min Rain = 0
KMC5 181936Z 16012G17KT 34/17 A2992 RMK A01 T03440172  RH  036%=      5-min Rain = 0
KMC5 181937Z 16013KT 34/17 A2991 RMK A01 T03430168  RH  035%=      5-min Rain = 0
KMC5 181938Z 19017KT 34/17 A2991 RMK A01 T03430166  RH  035%=      5-min Rain = 0
KMC5 181939Z 18015KT 34/17 A2991 RMK A01 T03430168  RH  035%=      5-min Rain = 0
KMC5 181940Z 16015G20KT 35/17 A2991 RMK A01 T03450174  RH  036%=      5-min Rain = 0
KMC5 181941Z 15019KT 35/17 A2991 RMK A01 T03490174  RH  036%=      5-min Rain = 0
KMC5 181942Z 15019KT 35/17 A2991 RMK A01 T03510173  RH  035%=      5-min Rain = 0
KMC5 181943Z 16020KT 35/17 A2991 RMK A01 T03500167  RH  034%=      5-min Rain = 0
KMC5 181944Z 17019KT 35/17 A2991 RMK A01 T03470166  RH  034%=      5-min Rain = 0
KMC5 181945Z 17016KT 35/17 A2991 RMK A01 T03470170  RH  035%=      5-min Rain = 0
KMC5 181946Z 17017KT 35/17 A2991 RMK A01 T03490171  RH  035%=      5-min Rain = 0
KMC5 181947Z 16014KT 35/17 A2991 RMK A01 T03500167  RH  034%=      5-min Rain = 0
KMC5 181948Z 16011KT 35/17 A2991 RMK A01 T03500171  RH  035%=      5-min Rain = 0
KMC5 181949Z 18010KT 35/17 A2991 RMK A01 T03500172  RH  035%=      5-min Rain = 0
KMC5 181950Z 17012KT 35/17 A2991 RMK A01 T03500172  RH  035%=      5-min Rain = 0
KMC5 181951Z 18013KT 35/18 A2991 RMK A01 T03530177  RH  035%=      5-min Rain = 0
KMC5 181952Z 18015KT 36/17 A2991 RMK A01 T03550169  RH  033%=      5-min Rain = 0
KMC5 181953Z 17013KT 35/17 A2991 RMK A01 T03540174  RH  035%=      5-min Rain = 0
KMC5 181954Z 18012G17KT 36/18 A2991 RMK A01 T03560182  RH  036%=      5-min Rain = 0
KMC5 181955Z 17016KT 36/17 A2991 RMK A01 T03580172  RH  033%=      5-min Rain = 0
KMC5 181956Z 16018KT 36/16 A2991 RMK A01 T03570163  RH  032%=      5-min Rain = 0
KMC5 181957Z 18015KT 36/17 A2991 RMK A01 T03550167  RH  033%=      5-min Rain = 0
KMC5 181958Z 16018G24KT 36/17 A2991 RMK A01 T03550170  RH  034%=      5-min Rain = 0
KMC5 181959Z 15019KT 36/17 A2991 RMK A01 T03550168  RH  033%=      5-min Rain = 0
KMC5 182000Z 15017G22KT 35/17 A2991 RMK A01 T03540165  RH  033%=      5-min Rain = 0
KMC5 182001Z 16020KT 35/17 A2991 RMK A01 T03530167  RH  033%=      5-min Rain = 0
KMC5 182002Z 16019KT 35/17 A2991 RMK A01 T03540169  RH  033%=      5-min Rain = 0
KMC5 182003Z 16015KT 36/17 A2991 RMK A01 T03550169  RH  033%=      5-min Rain = 0
KMC5 182004Z 16016KT 36/17 A2991 RMK A01 T03560169  RH  033%=      5-min Rain = 0
KMC5 182005Z 16015KT 36/17 A2991 RMK A01 T03560169  RH  033%=      5-min Rain = 0
KMC5 182006Z 16013KT 36/17 A2991 RMK A01 T03560170  RH  033%=      5-min Rain = 0
KMC5 182007Z 16012G17KT 36/17 A299 RMK A01 T03560166  RH  032%=      5-min Rain = 0
KMC5 182008Z 16015KT 36/17 A2991 RMK A01 T03560169  RH  033%=      5-min Rain = 0
KMC5 182009Z 18017KT 36/17 A299 RMK A01 T03560168  RH  033%=      5-min Rain = 0
KMC5 182010Z 16013KT 36/17 A2991 RMK A01 T03580174  RH  034%=      5-min Rain = 0
KMC5 182011Z 18014G19KT 36/17 A299 RMK A01 T03600171  RH  033%=      5-min Rain = 0
KMC5 182012Z 19015KT 36/17 A299 RMK A01 T03600167  RH  032%=      5-min Rain = 0
KMC5 182013Z 17016G23KT 36/17 A299 RMK A01 T03590170  RH  033%=      5-min Rain = 0
KMC5 182014Z 17020KT 36/17 A299 RMK A01 T03590165  RH  032%=      5-min Rain = 0
KMC5 182015Z 17018KT 36/16 A299 RMK A01 T03570164  RH  032%=      5-min Rain = 0
KMC5 182016Z 18016KT 36/17 A299 RMK A01 T03560165  RH  032%=      5-min Rain = 0
KMC5 182017Z 16015KT 36/17 A299 RMK A01 T03560170  RH  033%=      5-min Rain = 0
KMC5 182018Z 17018KT 36/16 A299 RMK A01 T03570163  RH  032%=      5-min Rain = 0
KMC5 182019Z 16013KT 36/17 A299 RMK A01 T03570170  RH  033%=      5-min Rain = 0
KMC5 182020Z 15013KT 36/16 A299 RMK A01 T03570164  RH  032%=      5-min Rain = 0
KMC5 182021Z 14012KT 36/17 A299 RMK A01 T03570172  RH  033%=      5-min Rain = 0
KMC5 182022Z 15013KT 36/17 A299 RMK A01 T03590172  RH  033%=      5-min Rain = 0
KMC5 182023Z 17014KT 36/17 A299 RMK A01 T03600167  RH  032%=      5-min Rain = 0
KMC5 182024Z 16014KT 36/17 A299 RMK A01 T03590167  RH  032%=      5-min Rain = 0
KMC5 182025Z 16014KT 36/17 A299 RMK A01 T03580166  RH  032%=      5-min Rain = 0
KMC5 182026Z 18014KT 36/17 A299 RMK A01 T03590168  RH  032%=      5-min Rain = 0
KMC5 182027Z 18015KT 36/17 A299 RMK A01 T03590169  RH  032%=      5-min Rain = 0
KMC5 182028Z 16020KT 36/17 A299 RMK A01 T03610167  RH  032%=      5-min Rain = 0
KMC5 182029Z 16018KT 36/17 A299 RMK A01 T03600167  RH  032%=      5-min Rain = 0
KMC5 182030Z 16016KT 36/17 A299 RMK A01 T03590165  RH  032%=      5-min Rain = 0
KMC5 182031Z 15014KT 36/17 A299 RMK A01 T03570165  RH  032%=      5-min Rain = 0
KMC5 182032Z 15013KT 36/16 A299 RMK A01 T03570163  RH  032%=      5-min Rain = 0
KMC5 182033Z 16015KT 36/16 A299 RMK A01 T03560163  RH  032%=      5-min Rain = 0
KMC5 182034Z 15016KT 36/17 A299 RMK A01 T03570168  RH  033%=      5-min Rain = 0
KMC5 182035Z 16018KT 36/17 A299 RMK A01 T03590169  RH  032%=      5-min Rain = 0
KMC5 182036Z 16015KT 36/17 A299 RMK A01 T03600167  RH  032%=      5-min Rain = 0
KMC5 182037Z 16016KT 36/17 A299 RMK A01 T03600166  RH  032%=      5-min Rain = 0
KMC5 182038Z 16016KT 36/17 A2989 RMK A01 T03590165  RH  032%=      5-min Rain = 0
KMC5 182039Z 16016G21KT 36/17 A299 RMK A01 T03590166  RH  032%=      5-min Rain = 0
KMC5 182040Z 16016KT 36/17 A2989 RMK A01 T03600167  RH  032%=      5-min Rain = 0
KMC5 182041Z 17018KT 36/17 A2989 RMK A01 T03610167  RH  032%=      5-min Rain = 0
KMC5 182042Z 16020KT 36/17 A2989 RMK A01 T03610165  RH  031%=      5-min Rain = 0
KMC5 182043Z 15021KT 36/16 A2989 RMK A01 T03610161  RH  031%=      5-min Rain = 0
KMC5 182044Z 17019G24KT 36/16 A2989 RMK A01 T03600161  RH  031%=      5-min Rain = 0
KMC5 182045Z 16017KT 36/16 A2989 RMK A01 T03590163  RH  031%=      5-min Rain = 0
KMC5 182046Z 15015KT 36/16 A2989 RMK A01 T03600164  RH  031%=      5-min Rain = 0
KMC5 182047Z 16019G25KT 36/17 A2989 RMK A01 T03610166  RH  031%=      5-min Rain = 0
KMC5 182048Z 17018G23KT 36/16 A2989 RMK A01 T03630161  RH  030%=      5-min Rain = 0
KMC5 182049Z 19019KT 36/16 A2989 RMK A01 T03630163  RH  031%=      5-min Rain = 0
KMC5 182050Z 18015KT 36/16 A2989 RMK A01 T03630162  RH  031%=      5-min Rain = 0
KMC5 182051Z 17021KT 36/16 A2989 RMK A01 T03620161  RH  030%=      5-min Rain = 0
KMC5 182052Z 18016KT 36/16 A2989 RMK A01 T03620161  RH  030%=      5-min Rain = 0
KMC5 182053Z 16016G21KT 36/16 A2989 RMK A01 T03620163  RH  031%=      5-min Rain = 0
KMC5 182054Z 16018KT 36/16 A2989 RMK A01 T03630159  RH  030%=      5-min Rain = 0
KMC5 182055Z 16017KT 36/16 A2989 RMK A01 T03630160  RH  030%=      5-min Rain = 0
KMC5 182056Z 15017KT 36/16 A2989 RMK A01 T03620162  RH  031%=      5-min Rain = 0
KMC5 182057Z 16016KT 36/16 A2989 RMK A01 T03620158  RH  030%=      5-min Rain = 0
KMC5 182058Z 16014KT 36/16 A2989 RMK A01 T03620164  RH  031%=      5-min Rain = 0
KMC5 182059Z 16014KT 36/16 A2989 RMK A01 T03620164  RH  031%=      5-min Rain = 0
KMC5 182100Z 18019G25KT 36/16 A2989 RMK A01 T03630162  RH  030%=      5-min Rain = 0
KMC5 182101Z 18016KT 36/16 A2989 RMK A01 T03640164  RH  031%=      5-min Rain = 0
KMC5 182102Z 18018G23KT 37/16 A2989 RMK A01 T03650163  RH  030%=      5-min Rain = 0
KMC5 182103Z 18019G24KT 36/16 A2989 RMK A01 T03640161  RH  030%=      5-min Rain = 0
KMC5 182104Z 17014KT 36/17 A2989 RMK A01 T03640168  RH  031%=      5-min Rain = 0
KMC5 182105Z 16017KT 37/16 A2989 RMK A01 T03660162  RH  030%=      5-min Rain = 0
KMC5 182106Z 17016G21KT 37/16 A2989 RMK A01 T03650162  RH  030%=      5-min Rain = 0
KMC5 182107Z 17013KT 37/17 A2988 RMK A01 T03650165  RH  031%=      5-min Rain = 0
KMC5 182108Z 16015G20KT 37/16 A2988 RMK A01 T03650164  RH  031%=      5-min Rain = 0
KMC5 182109Z 17020KT 37/16 A2988 RMK A01 T03660163  RH  030%=      5-min Rain = 0
KMC5 182110Z 17019G24KT 37/16 A2988 RMK A01 T03660164  RH  030%=      5-min Rain = 0
KMC5 182111Z 16018KT 37/16 A2988 RMK A01 T03650161  RH  030%=      5-min Rain = 0
KMC5 182112Z 16018KT 37/16 A2988 RMK A01 T03650163  RH  030%=      5-min Rain = 0
KMC5 182113Z 18015KT 36/16 A2988 RMK A01 T03640163  RH  030%=      5-min Rain = 0
KMC5 182114Z 17018G23KT 36/16 A2988 RMK A01 T03640158  RH  029%=      5-min Rain = 0
KMC5 182115Z 17017G22KT 36/16 A2988 RMK A01 T03630159  RH  030%=      5-min Rain = 0
KMC5 182116Z 17018KT 36/16 A2988 RMK A01 T03630156  RH  029%=      5-min Rain = 0
KMC5 182117Z 18017KT 36/16 A2988 RMK A01 T03630159  RH  030%=      5-min Rain = 0
KMC5 182118Z 18014KT 36/16 A2988 RMK A01 T03630159  RH  030%=      5-min Rain = 0
KMC5 182119Z 16015KT 36/16 A2988 RMK A01 T03640159  RH  030%=      5-min Rain = 0
KMC5 182120Z 14018KT 37/16 A2988 RMK A01 T03650159  RH  029%=      5-min Rain = 0
KMC5 182121Z 18019G31KT 37/16 A2987 RMK A01 T03660161  RH  030%=      5-min Rain = 0
KMC5 182122Z 17018G24KT 37/16 A2988 RMK A01 T03680162  RH  030%=      5-min Rain = 0
KMC5 182123Z 17021KT 37/16 A2988 RMK A01 T03690159  RH  029%=      5-min Rain = 0
KMC5 182124Z 18022KT 37/16 A2988 RMK A01 T03680155  RH  028%=      5-min Rain = 0
KMC5 182125Z 17017KT 37/16 A2988 RMK A01 T03670162  RH  030%=      5-min Rain = 0
KMC5 182126Z 18018KT 37/16 A2988 RMK A01 T03670157  RH  029%=      5-min Rain = 0
KMC5 182127Z 18016KT 37/16 A2988 RMK A01 T03660157  RH  029%=      5-min Rain = 0
KMC5 182128Z 17017KT 37/16 A2988 RMK A01 T03660159  RH  029%=      5-min Rain = 0
KMC5 182129Z 18020KT 37/15 A2988 RMK A01 T03660153  RH  028%=      5-min Rain = 0
KMC5 182130Z 17015KT 37/16 A2988 RMK A01 T03650155  RH  029%=      5-min Rain = 0
KMC5 182131Z 17020G27KT 36/16 A2987 RMK A01 T03640155  RH  029%=      5-min Rain = 0
KMC5 182132Z 18018KT 37/16 A2988 RMK A01 T03650155  RH  029%=      5-min Rain = 0
KMC5 182133Z 17017KT 37/15 A2988 RMK A01 T03660151  RH  028%=      5-min Rain = 0
KMC5 182134Z 17018KT 37/15 A2987 RMK A01 T03650150  RH  028%=      5-min Rain = 0
KMC5 182135Z 17014KT 37/16 A2987 RMK A01 T03650157  RH  029%=      5-min Rain = 0
KMC5 182136Z 16013G18KT 37/16 A2987 RMK A01 T03670161  RH  030%=      5-min Rain = 0
KMC5 182137Z 15019G24KT 37/16 A2987 RMK A01 T03690158  RH  029%=      5-min Rain = 0
KMC5 182138Z 15021KT 37/15 A2987 RMK A01 T03690153  RH  028%=      5-min Rain = 0
KMC5 182139Z 16016KT 37/15 A2987 RMK A01 T03680153  RH  028%=      5-min Rain = 0
KMC5 182140Z 15016KT 37/16 A2987 RMK A01 T03670155  RH  029%=      5-min Rain = 0
KMC5 182141Z 15015KT 37/16 A2987 RMK A01 T03670156  RH  029%=      5-min Rain = 0
KMC5 182142Z 16019G24KT 37/15 A2987 RMK A01 T03680153  RH  028%=      5-min Rain = 0
KMC5 182143Z 17015KT 37/16 A2987 RMK A01 T03680159  RH  029%=      5-min Rain = 0
KMC5 182144Z 18020G25KT 37/16 A2987 RMK A01 T03690158  RH  029%=      5-min Rain = 0
KMC5 182145Z 18017KT 37/16 A2987 RMK A01 T03680156  RH  029%=      5-min Rain = 0
KMC5 182146Z 18021KT 37/16 A2987 RMK A01 T03670158  RH  029%=      5-min Rain = 0
KMC5 182147Z 16018G23KT 37/16 A2987 RMK A01 T03690159  RH  029%=      5-min Rain = 0
KMC5 182148Z 17019KT 37/16 A2987 RMK A01 T03700159  RH  029%=      5-min Rain = 0
KMC5 182149Z 18015KT 37/16 A2987 RMK A01 T03690158  RH  029%=      5-min Rain = 0
KMC5 182150Z 18012KT 37/17 A2987 RMK A01 T03690165  RH  030%=      5-min Rain = 0
KMC5 182151Z 18018KT 37/16 A2987 RMK A01 T03700164  RH  030%=      5-min Rain = 0
KMC5 182152Z 18013KT 37/16 A2987 RMK A01 T03700159  RH  029%=      5-min Rain = 0
KMC5 182153Z 18015KT 37/16 A2987 RMK A01 T03690159  RH  029%=      5-min Rain = 0
KMC5 182154Z 15020KT 37/16 A2987 RMK A01 T03690156  RH  028%=      5-min Rain = 0
KMC5 182155Z 16018KT 37/15 A2987 RMK A01 T03690154  RH  028%=      5-min Rain = 0
KMC5 182156Z 17016KT 37/16 A2987 RMK A01 T03680157  RH  029%=      5-min Rain = 0
KMC5 182157Z 18020KT 37/16 A2987 RMK A01 T03690156  RH  028%=      5-min Rain = 0
KMC5 182158Z 17016KT 37/15 A2987 RMK A01 T03690154  RH  028%=      5-min Rain = 0
KMC5 182159Z 18017KT 37/16 A2987 RMK A01 T03690156  RH  028%=      5-min Rain = 0
KMC5 182200Z 18016KT 37/15 A2987 RMK A01 T03680150  RH  027%=      5-min Rain = 0
KMC5 182201Z 16014KT 37/16 A2987 RMK A01 T03670155  RH  029%=      5-min Rain = 0
KMC5 182202Z 17016KT 37/16 A2987 RMK A01 T03680158  RH  029%=      5-min Rain = 0
KMC5 182203Z 17018G23KT 37/15 A2987 RMK A01 T03680154  RH  028%=      5-min Rain = 0
KMC5 182204Z 17018G24KT 37/15 A2987 RMK A01 T03680154  RH  028%=      5-min Rain = 0
KMC5 182205Z 17016KT 37/15 A2987 RMK A01 T03690154  RH  028%=      5-min Rain = 0
KMC5 182206Z 17015KT 37/15 A2987 RMK A01 T03670151  RH  028%=      5-min Rain = 0
KMC5 182207Z 17016KT 37/15 A2987 RMK A01 T03670153  RH  028%=      5-min Rain = 0
KMC5 182208Z 16018KT 37/15 A2987 RMK A01 T03660152  RH  028%=      5-min Rain = 0
KMC5 182209Z 16019G24KT 37/15 A2987 RMK A01 T03670154  RH  028%=      5-min Rain = 0
KMC5 182210Z 16021KT 37/15 A2987 RMK A01 T03680151  RH  028%=      5-min Rain = 0
KMC5 182211Z 16019KT 37/15 A2987 RMK A01 T03680149  RH  027%=      5-min Rain = 0
KMC5 182212Z 16019KT 37/15 A2987 RMK A01 T03670149  RH  027%=      5-min Rain = 0
KMC5 182213Z 16017KT 37/15 A2987 RMK A01 T03670151  RH  028%=      5-min Rain = 0
KMC5 182214Z 16017KT 37/15 A2986 RMK A01 T03670150  RH  028%=      5-min Rain = 0
KMC5 182215Z 16018KT 37/15 A2986 RMK A01 T03660152  RH  028%=      5-min Rain = 0
KMC5 182216Z 17018KT 37/15 A2986 RMK A01 T03670150  RH  028%=      5-min Rain = 0
KMC5 182217Z 17015KT 37/15 A2986 RMK A01 T03670150  RH  028%=      5-min Rain = 0
KMC5 182218Z 15017G22KT 37/16 A2986 RMK A01 T03660155  RH  029%=      5-min Rain = 0
KMC5 182219Z 16021KT 37/15 A2986 RMK A01 T03680151  RH  028%=      5-min Rain = 0
KMC5 182220Z 16019KT 37/15 A2986 RMK A01 T03680154  RH  028%=      5-min Rain = 0
KMC5 182221Z 18020KT 37/15 A2986 RMK A01 T03680154  RH  028%=      5-min Rain = 0
KMC5 182222Z 18016G23KT 37/16 A2986 RMK A01 T03680159  RH  029%=      5-min Rain = 0
KMC5 182223Z 17018G23KT 37/16 A2986 RMK A01 T03690155  RH  028%=      5-min Rain = 0
KMC5 182224Z 17014KT 37/15 A2986 RMK A01 T03680154  RH  028%=      5-min Rain = 0
KMC5 182225Z 17012KT 37/16 A2986 RMK A01 T03670157  RH  029%=      5-min Rain = 0
KMC5 182226Z 16014KT 37/16 A2986 RMK A01 T03680156  RH  029%=      5-min Rain = 0
KMC5 182227Z 15015KT 37/16 A2986 RMK A01 T03690159  RH  029%=      5-min Rain = 0
KMC5 182228Z 16016KT 37/16 A2986 RMK A01 T03690155  RH  028%=      5-min Rain = 0
KMC5 182229Z 16016KT 37/15 A2986 RMK A01 T03690154  RH  028%=      5-min Rain = 0
KMC5 182230Z 16013KT 37/16 A2986 RMK A01 T03690159  RH  029%=      5-min Rain = 0
KMC5 182231Z 16012KT 37/16 A2986 RMK A01 T03690157  RH  029%=      5-min Rain = 0
KMC5 182232Z 17012G19KT 37/16 A2986 RMK A01 T03690161  RH  029%=      5-min Rain = 0
KMC5 182233Z 16018KT 37/16 A2986 RMK A01 T03700157  RH  028%=      5-min Rain = 0
KMC5 182234Z 17016KT 37/15 A2986 RMK A01 T03700152  RH  028%=      5-min Rain = 0
KMC5 182235Z 18014KT 37/15 A2986 RMK A01 T03690152  RH  028%=      5-min Rain = 0
KMC5 182236Z 17016KT 37/16 A2986 RMK A01 T03680157  RH  029%=      5-min Rain = 0
KMC5 182237Z 17019KT 37/16 A2986 RMK A01 T03700155  RH  028%=      5-min Rain = 0
KMC5 182238Z 17016KT 37/15 A2986 RMK A01 T03700154  RH  028%=      5-min Rain = 0
KMC5 182239Z 17017KT 37/15 A2986 RMK A01 T03690150  RH  027%=      5-min Rain = 0
KMC5 182240Z 17015KT 37/15 A2986 RMK A01 T03680151  RH  028%=      5-min Rain = 0
KMC5 182241Z 18015KT 37/15 A2985 RMK A01 T03670151  RH  028%=      5-min Rain = 0
KMC5 182242Z 16016KT 37/15 A2985 RMK A01 T03680151  RH  028%=      5-min Rain = 0
KMC5 182243Z 17019KT 37/15 A2985 RMK A01 T03690154  RH  028%=      5-min Rain = 0
KMC5 182244Z 17020KT 37/15 A2985 RMK A01 T03690148  RH  027%=      5-min Rain = 0
KMC5 182245Z 17020KT 37/15 A2985 RMK A01 T03680148  RH  027%=      5-min Rain = 0
KMC5 182246Z 17019KT 37/15 A2985 RMK A01 T03680148  RH  027%=      5-min Rain = 0
KMC5 182247Z 18019KT 37/15 A2985 RMK A01 T03680148  RH  027%=      5-min Rain = 0
KMC5 182248Z 17019KT 37/15 A2985 RMK A01 T03670146  RH  027%=      5-min Rain = 0
KMC5 182249Z 16018KT 37/15 A2985 RMK A01 T03670147  RH  027%=      5-min Rain = 0
KMC5 182250Z 17020KT 37/15 A2985 RMK A01 T03670147  RH  027%=      5-min Rain = 0
KMC5 182251Z 16019KT 37/15 A2985 RMK A01 T03670145  RH  027%=      5-min Rain = 0
KMC5 182252Z 16021KT 37/15 A2985 RMK A01 T03670147  RH  027%=      5-min Rain = 0
KMC5 182253Z 17020G26KT 37/15 A2985 RMK A01 T03680147  RH  027%=      5-min Rain = 0
KMC5 182254Z 17023G28KT 37/14 A2985 RMK A01 T03680143  RH  026%=      5-min Rain = 0
KMC5 182255Z 18022KT 37/15 A2985 RMK A01 T03670145  RH  027%=      5-min Rain = 0
KMC5 182256Z 17018KT 37/15 A2985 RMK A01 T03670146  RH  027%=      5-min Rain = 0
KMC5 182257Z 17020G26KT 37/15 A2985 RMK A01 T03670146  RH  027%=      5-min Rain = 0
KMC5 182258Z 17019KT 37/15 A2985 RMK A01 T03670145  RH  027%=      5-min Rain = 0
KMC5 182259Z 18018KT 37/15 A2985 RMK A01 T03670145  RH  027%=      5-min Rain = 0
KMC5 182300Z 18018KT 37/15 A2985 RMK A01 T03670145  RH  027%=      5-min Rain = 0
KMC5 182301Z 17016G21KT 37/15 A2985 RMK A01 T03670148  RH  027%=      5-min Rain = 0
KMC5 182302Z 17017KT 37/15 A2985 RMK A01 T03670152  RH  028%=      5-min Rain = 0
KMC5 182303Z 17021KT 37/15 A2985 RMK A01 T03670146  RH  027%=      5-min Rain = 0
KMC5 182304Z 17019KT 37/14 A2985 RMK A01 T03670144  RH  027%=      5-min Rain = 0
KMC5 182305Z 16018KT 37/15 A2985 RMK A01 T03660146  RH  027%=      5-min Rain = 0
KMC5 182306Z 15016KT 37/15 A2985 RMK A01 T03660149  RH  028%=      5-min Rain = 0
KMC5 182307Z 17013KT 37/15 A2985 RMK A01 T03670151  RH  028%=      5-min Rain = 0
KMC5 182308Z 16014KT 37/15 A2985 RMK A01 T03670151  RH  028%=      5-min Rain = 0
KMC5 182309Z 18017KT 37/15 A2985 RMK A01 T03680150  RH  027%=      5-min Rain = 0
KMC5 182310Z 19020G25KT 37/15 A2985 RMK A01 T03690150  RH  027%=      5-min Rain = 0
KMC5 182311Z 18021KT 37/15 A2985 RMK A01 T03680146  RH  027%=      5-min Rain = 0
KMC5 182312Z 17020KT 37/15 A2985 RMK A01 T03680145  RH  027%=      5-min Rain = 0
KMC5 182313Z 17019KT 37/15 A2985 RMK A01 T03670146  RH  027%=      5-min Rain = 0
KMC5 182314Z 17017KT 37/15 A2985 RMK A01 T03670147  RH  027%=      5-min Rain = 0
KMC5 182315Z 18017KT 37/15 A2985 RMK A01 T03670146  RH  027%=      5-min Rain = 0
KMC5 182316Z 17017KT 37/15 A2985 RMK A01 T03670149  RH  027%=      5-min Rain = 0
KMC5 182317Z 17018KT 37/15 A2985 RMK A01 T03670147  RH  027%=      5-min Rain = 0
KMC5 182318Z 18017KT 37/15 A2985 RMK A01 T03670151  RH  028%=      5-min Rain = 0
KMC5 182319Z 18015KT 37/15 A2985 RMK A01 T03670152  RH  028%=      5-min Rain = 0
KMC5 182320Z 16015KT 37/16 A2985 RMK A01 T03670155  RH  028%=      5-min Rain = 0
KMC5 182321Z 15017KT 37/16 A2985 RMK A01 T03670155  RH  029%=      5-min Rain = 0
KMC5 182322Z 16013KT 37/16 A2984 RMK A01 T03670157  RH  029%=      5-min Rain = 0
KMC5 182323Z 16016KT 37/16 A2984 RMK A01 T03670155  RH  029%=      5-min Rain = 0
KMC5 182324Z 17021KT 37/15 A2984 RMK A01 T03670149  RH  027%=      5-min Rain = 0
KMC5 182325Z 18019KT 37/15 A2984 RMK A01 T03660149  RH  027%=      5-min Rain = 0
KMC5 182326Z 17019KT 37/15 A2984 RMK A01 T03660150  RH  028%=      5-min Rain = 0
KMC5 182327Z 17019KT 37/15 A2984 RMK A01 T03660148  RH  027%=      5-min Rain = 0
KMC5 182328Z 17018KT 37/15 A2984 RMK A01 T03650148  RH  027%=      5-min Rain = 0
KMC5 182329Z 17015KT 37/15 A2984 RMK A01 T03650150  RH  028%=      5-min Rain = 0
KMC5 182330Z 17015KT 37/15 A2984 RMK A01 T03650154  RH  029%=      5-min Rain = 0
KMC5 182331Z 16015G23KT 37/16 A2984 RMK A01 T03650155  RH  029%=      5-min Rain = 0
KMC5 182332Z 16020KT 37/15 A2984 RMK A01 T03650151  RH  028%=      5-min Rain = 0
KMC5 182333Z 17017KT 37/15 A2984 RMK A01 T03650153  RH  028%=      5-min Rain = 0
KMC5 182334Z 17018KT 37/15 A2984 RMK A01 T03650153  RH  029%=      5-min Rain = 0
KMC5 182335Z 16017KT 36/15 A2984 RMK A01 T03640152  RH  028%=      5-min Rain = 0
KMC5 182336Z 17018KT 36/15 A2984 RMK A01 T03640152  RH  028%=      5-min Rain = 0
KMC5 182337Z 17016KT 36/15 A2984 RMK A01 T03640153  RH  029%=      5-min Rain = 0
KMC5 182338Z 16017G22KT 36/15 A2984 RMK A01 T03640153  RH  029%=      5-min Rain = 0
KMC5 182339Z 16017KT 36/15 A2984 RMK A01 T03640153  RH  029%=      5-min Rain = 0
KMC5 182340Z 16018KT 36/15 A2984 RMK A01 T03640152  RH  029%=      5-min Rain = 0
KMC5 182341Z 16021KT 36/15 A2984 RMK A01 T03640148  RH  028%=      5-min Rain = 0
KMC5 182342Z 17018KT 36/15 A2984 RMK A01 T03640149  RH  028%=      5-min Rain = 0
KMC5 182343Z 17015KT 36/15 A2984 RMK A01 T03640151  RH  028%=      5-min Rain = 0
KMC5 182344Z 17018KT 36/15 A2984 RMK A01 T03640149  RH  028%=      5-min Rain = 0
KMC5 182345Z 16018KT 36/15 A2984 RMK A01 T03640149  RH  028%=      5-min Rain = 0
KMC5 182346Z 17017KT 36/15 A2984 RMK A01 T03640148  RH  028%=      5-min Rain = 0
KMC5 182347Z 17017KT 36/15 A2984 RMK A01 T03640150  RH  028%=      5-min Rain = 0
KMC5 182348Z 17016KT 36/15 A2985 RMK A01 T03630151  RH  028%=      5-min Rain = 0
KMC5 182349Z 16014KT 36/15 A2985 RMK A01 T03630151  RH  028%=      5-min Rain = 0
KMC5 182350Z 16017KT 36/15 A2984 RMK A01 T03630149  RH  028%=      5-min Rain = 0
KMC5 182351Z 17017KT 36/15 A2984 RMK A01 T03630148  RH  028%=      5-min Rain = 0
KMC5 182352Z 16015KT 36/15 A2984 RMK A01 T03630150  RH  028%=      5-min Rain = 0
KMC5 182353Z 16015KT 36/15 A2984 RMK A01 T03630150  RH  028%=      5-min Rain = 0
KMC5 182354Z 16019KT 36/15 A2984 RMK A01 T03620149  RH  028%=      5-min Rain = 0
KMC5 182355Z 17019KT 36/15 A2984 RMK A01 T03630148  RH  028%=      5-min Rain = 0
KMC5 182356Z 18016KT 36/15 A2984 RMK A01 T03620151  RH  028%=      5-min Rain = 0
KMC5 182357Z 19019KT 36/15 A2984 RMK A01 T03620151  RH  028%=      5-min Rain = 0
KMC5 182358Z 18017KT 36/15 A2984 RMK A01 T03620149  RH  028%=      5-min Rain = 0
KMC5 182359Z 16014KT 36/16 A2984 RMK A01 T03630155  RH  029%=      5-min Rain = 0
KMC5 190000Z 17014KT 36/15 A2984 RMK A01 T03620154  RH  029%=      5-min Rain = 0
KMC5 190001Z 16015KT 36/15 A2984 RMK A01 T03610149  RH  028%=      5-min Rain = 0
KMC5 190002Z 16013G21KT 36/16 A2984 RMK A01 T03620155  RH  029%=      5-min Rain = 0
KMC5 190003Z 15017KT 36/15 A2984 RMK A01 T03610152  RH  029%=      5-min Rain = 0
KMC5 190004Z 16016G21KT 36/15 A2984 RMK A01 T03610153  RH  029%=      5-min Rain = 0
KMC5 190005Z 16019KT 36/15 A2984 RMK A01 T03610151  RH  029%=      5-min Rain = 0
KMC5 190006Z 17017KT 36/15 A2984 RMK A01 T03600153  RH  029%=      5-min Rain = 0
KMC5 190007Z 17015KT 36/16 A2984 RMK A01 T03600155  RH  030%=      5-min Rain = 0
KMC5 190008Z 16018KT 36/15 A2984 RMK A01 T03600153  RH  029%=      5-min Rain = 0
KMC5 190009Z 16015G20KT 36/15 A2984 RMK A01 T03600153  RH  029%=      5-min Rain = 0
KMC5 190010Z 16014KT 36/16 A2984 RMK A01 T03600156  RH  030%=      5-min Rain = 0
KMC5 190011Z 16013KT 36/16 A2984 RMK A01 T03590158  RH  030%=      5-min Rain = 0
KMC5 190012Z 16016KT 36/15 A2984 RMK A01 T03580153  RH  030%=      5-min Rain = 0
KMC5 190013Z 16019KT 36/15 A2984 RMK A01 T03590151  RH  029%=      5-min Rain = 0
KMC5 190014Z 16018KT 36/15 A2984 RMK A01 T03580150  RH  029%=      5-min Rain = 0
KMC5 190015Z 16016KT 36/15 A2984 RMK A01 T03580151  RH  029%=      5-min Rain = 0
KMC5 190016Z 16017KT 36/15 A2985 RMK A01 T03580152  RH  029%=      5-min Rain = 0
KMC5 190017Z 17019KT 36/15 A2984 RMK A01 T03580152  RH  029%=      5-min Rain = 0
KMC5 190018Z 16017KT 36/15 A2984 RMK A01 T03580151  RH  029%=      5-min Rain = 0
KMC5 190019Z 17015G21KT 36/15 A2984 RMK A01 T03570153  RH  030%=      5-min Rain = 0
KMC5 190020Z 17019KT 36/15 A2984 RMK A01 T03570151  RH  029%=      5-min Rain = 0
KMC5 190021Z 16016KT 36/15 A2984 RMK A01 T03570151  RH  029%=      5-min Rain = 0
KMC5 190022Z 16014G19KT 36/15 A2984 RMK A01 T03570154  RH  030%=      5-min Rain = 0
KMC5 190023Z 16012KT 36/16 A2985 RMK A01 T03570158  RH  031%=      5-min Rain = 0
KMC5 190024Z 15015KT 36/16 A2984 RMK A01 T03560156  RH  030%=      5-min Rain = 0
KMC5 190025Z 15015KT 36/16 A2984 RMK A01 T03560156  RH  031%=      5-min Rain = 0
KMC5 190026Z 16017KT 36/15 A2984 RMK A01 T03560154  RH  030%=      5-min Rain = 0
KMC5 190027Z 16015KT 36/16 A2984 RMK A01 T03560155  RH  030%=      5-min Rain = 0
KMC5 190028Z 16017KT 36/16 A2984 RMK A01 T03550155  RH  030%=      5-min Rain = 0
KMC5 190029Z 16017KT 36/15 A2985 RMK A01 T03550153  RH  030%=      5-min Rain = 0
KMC5 190030Z 17015KT 36/15 A2985 RMK A01 T03550154  RH  030%=      5-min Rain = 0
KMC5 190031Z 17012KT 36/16 A2985 RMK A01 T03550156  RH  031%=      5-min Rain = 0
KMC5 190032Z 17013KT 35/16 A2985 RMK A01 T03540157  RH  031%=      5-min Rain = 0
KMC5 190033Z 17013KT 35/16 A2985 RMK A01 T03540155  RH  031%=      5-min Rain = 0
KMC5 190034Z 16012KT 35/16 A2985 RMK A01 T03540156  RH  031%=      5-min Rain = 0
KMC5 190035Z 17012KT 35/16 A2985 RMK A01 T03530155  RH  031%=      5-min Rain = 0
KMC5 190036Z 17012KT 35/16 A2985 RMK A01 T03530157  RH  031%=      5-min Rain = 0
KMC5 190037Z 16014KT 35/16 A2985 RMK A01 T03530157  RH  031%=      5-min Rain = 0
KMC5 190038Z 16015KT 35/16 A2985 RMK A01 T03520155  RH  031%=      5-min Rain = 0
KMC5 190039Z 16015KT 35/15 A2985 RMK A01 T03520154  RH  031%=      5-min Rain = 0
KMC5 190040Z 16013G20KT 35/16 A2985 RMK A01 T03530158  RH  031%=      5-min Rain = 0
KMC5 190041Z 17015KT 35/16 A2985 RMK A01 T03520157  RH  031%=      5-min Rain = 0
KMC5 190042Z 17015KT 35/16 A2985 RMK A01 T03510156  RH  031%=      5-min Rain = 0
KMC5 190043Z 16013KT 35/16 A2985 RMK A01 T03510158  RH  032%=      5-min Rain = 0
KMC5 190044Z 16014KT 35/16 A2985 RMK A01 T03510158  RH  032%=      5-min Rain = 0
KMC5 190045Z 16013KT 35/16 A2985 RMK A01 T03500157  RH  032%=      5-min Rain = 0
KMC5 190046Z 16013KT 35/16 A2985 RMK A01 T03490159  RH  032%=      5-min Rain = 0
KMC5 190047Z 16014KT 35/16 A2985 RMK A01 T03490156  RH  032%=      5-min Rain = 0
KMC5 190048Z 17015KT 35/16 A2985 RMK A01 T03490156  RH  032%=      5-min Rain = 0
KMC5 190049Z 17013KT 35/16 A2985 RMK A01 T03490157  RH  032%=      5-min Rain = 0
KMC5 190050Z 17014KT 35/16 A2985 RMK A01 T03490157  RH  032%=      5-min Rain = 0
KMC5 190051Z 16013KT 35/16 A2985 RMK A01 T03480155  RH  032%=      5-min Rain = 0
KMC5 190052Z 16011KT 35/16 A2985 RMK A01 T03480158  RH  032%=      5-min Rain = 0
KMC5 190053Z 17015KT 35/16 A2985 RMK A01 T03480157  RH  032%=      5-min Rain = 0
KMC5 190054Z 16014KT 35/16 A2985 RMK A01 T03480158  RH  032%=      5-min Rain = 0
KMC5 190055Z 16014KT 35/16 A2985 RMK A01 T03470156  RH  032%=      5-min Rain = 0
KMC5 190056Z 16013KT 35/16 A2985 RMK A01 T03480157  RH  032%=      5-min Rain = 0
KMC5 190057Z 16011KT 35/16 A2985 RMK A01 T03470159  RH  033%=      5-min Rain = 0
KMC5 190058Z 15011KT 35/16 A2985 RMK A01 T03460162  RH  034%=      5-min Rain = 0
KMC5 190059Z 16011KT 34/16 A2985 RMK A01 T03440160  RH  033%=      5-min Rain = 0
KMC5 190100Z 16012KT 34/16 A2985 RMK A01 T03440161  RH  034%=      5-min Rain = 0
KMC5 190101Z 16012KT 34/16 A2985 RMK A01 T03430159  RH  033%=      5-min Rain = 0
KMC5 190102Z 16012KT 34/16 A2985 RMK A01 T03430161  RH  034%=      5-min Rain = 0
KMC5 190103Z 16012KT 34/16 A2985 RMK A01 T03430162  RH  034%=      5-min Rain = 0
KMC5 190104Z 16013KT 34/16 A2985 RMK A01 T03420160  RH  034%=      5-min Rain = 0
KMC5 190105Z 16012KT 34/16 A2985 RMK A01 T03420159  RH  034%=      5-min Rain = 0
KMC5 190106Z 17011KT 34/16 A2985 RMK A01 T03420161  RH  034%=      5-min Rain = 0
KMC5 190107Z 17011KT 34/16 A2985 RMK A01 T03420158  RH  033%=      5-min Rain = 0
KMC5 190108Z 16010KT 34/16 A2985 RMK A01 T03420161  RH  034%=      5-min Rain = 0
KMC5 190109Z 16009KT 34/16 A2985 RMK A01 T03410163  RH  035%=      5-min Rain = 0
KMC5 190110Z 16010KT 34/16 A2985 RMK A01 T03390162  RH  035%=      5-min Rain = 0
KMC5 190111Z 16011KT 34/16 A2985 RMK A01 T03390162  RH  035%=      5-min Rain = 0
KMC5 190112Z 16012KT 34/16 A2985 RMK A01 T03380161  RH  035%=      5-min Rain = 0
KMC5 190113Z 16013KT 34/16 A2985 RMK A01 T03380159  RH  034%=      5-min Rain = 0
KMC5 190114Z 16012KT 34/16 A2985 RMK A01 T03390158  RH  034%=      5-min Rain = 0
KMC5 190115Z 16012KT 34/16 A2985 RMK A01 T03390159  RH  034%=      5-min Rain = 0
KMC5 190116Z 16010KT 34/16 A2985 RMK A01 T03390161  RH  034%=      5-min Rain = 0
KMC5 190117Z 17011KT 34/16 A2985 RMK A01 T03380162  RH  035%=      5-min Rain = 0
KMC5 190118Z 16011KT 34/16 A2985 RMK A01 T03360161  RH  035%=      5-min Rain = 0
KMC5 190119Z 16011KT 34/16 A2985 RMK A01 T03360161  RH  035%=      5-min Rain = 0
KMC5 190120Z 16011G16KT 34/16 A2985 RMK A01 T03350162  RH  035%=      5-min Rain = 0
KMC5 190121Z 16009KT 34/16 A2985 RMK A01 T03350161  RH  035%=      5-min Rain = 0
KMC5 190122Z 16009KT 33/16 A2985 RMK A01 T03330163  RH  036%=      5-min Rain = 0
KMC5 190123Z 16009KT 33/16 A2985 RMK A01 T03320162  RH  036%=      5-min Rain = 0
KMC5 190124Z 16009KT 33/16 A2985 RMK A01 T03320163  RH  036%=      5-min Rain = 0
KMC5 190125Z 16011KT 33/16 A2985 RMK A01 T03310161  RH  036%=      5-min Rain = 0
KMC5 190126Z 15011KT 33/16 A2985 RMK A01 T03310159  RH  036%=      5-min Rain = 0
KMC5 190127Z 16011KT 33/16 A2985 RMK A01 T03320160  RH  036%=      5-min Rain = 0
KMC5 190128Z 15009KT 33/16 A2986 RMK A01 T03320162  RH  036%=      5-min Rain = 0
KMC5 190129Z 15009KT 33/16 A2986 RMK A01 T03310162  RH  036%=      5-min Rain = 0
KMC5 190130Z 15011KT 33/16 A2986 RMK A01 T03300163  RH  037%=      5-min Rain = 0
KMC5 190131Z 16010KT 33/16 A2986 RMK A01 T03300162  RH  037%=      5-min Rain = 0
KMC5 190132Z 16012KT 33/16 A2986 RMK A01 T03290164  RH  037%=      5-min Rain = 0
KMC5 190133Z 16012KT 33/16 A2986 RMK A01 T03290163  RH  037%=      5-min Rain = 0
KMC5 190134Z 16013KT 33/16 A2986 RMK A01 T03290164  RH  037%=      5-min Rain = 0
KMC5 190135Z 16011KT 33/16 A2986 RMK A01 T03280163  RH  037%=      5-min Rain = 0
KMC5 190136Z 16011KT 33/17 A2986 RMK A01 T03280165  RH  038%=      5-min Rain = 0
KMC5 190137Z 16012KT 33/16 A2986 RMK A01 T03280164  RH  037%=      5-min Rain = 0
KMC5 190138Z 16012KT 33/16 A2986 RMK A01 T03270163  RH  037%=      5-min Rain = 0
KMC5 190139Z 16012KT 33/16 A2986 RMK A01 T03270163  RH  037%=      5-min Rain = 0
KMC5 190140Z 16011KT 33/16 A2986 RMK A01 T03270164  RH  038%=      5-min Rain = 0
KMC5 190141Z 16013KT 33/16 A2986 RMK A01 T03270163  RH  038%=      5-min Rain = 0
KMC5 190142Z 16012KT 33/16 A2986 RMK A01 T03270163  RH  038%=      5-min Rain = 0
KMC5 190143Z 16013KT 33/16 A2986 RMK A01 T03260162  RH  038%=      5-min Rain = 0
KMC5 190144Z 16013KT 33/16 A2986 RMK A01 T03260162  RH  037%=      5-min Rain = 0
KMC5 190145Z 16015KT 33/16 A2986 RMK A01 T03260162  RH  037%=      5-min Rain = 0
KMC5 190146Z 16012KT 33/16 A2986 RMK A01 T03260162  RH  037%=      5-min Rain = 0
KMC5 190147Z 16013KT 33/16 A2986 RMK A01 T03260163  RH  038%=      5-min Rain = 0
KMC5 190148Z 16012G17KT 33/16 A2986 RMK A01 T03250163  RH  038%=      5-min Rain = 0
KMC5 190149Z 15014KT 33/16 A2986 RMK A01 T03250162  RH  038%=      5-min Rain = 0
KMC5 190150Z 16013KT 33/16 A2986 RMK A01 T03250162  RH  038%=      5-min Rain = 0
KMC5 190151Z 16014KT 33/16 A2986 RMK A01 T03250162  RH  038%=      5-min Rain = 0
KMC5 190152Z 15012KT 33/16 A2986 RMK A01 T03250162  RH  038%=      5-min Rain = 0
KMC5 190153Z 15013KT 33/16 A2986 RMK A01 T03250162  RH  038%=      5-min Rain = 0
KMC5 190154Z 16012KT 32/16 A2986 RMK A01 T03240162  RH  038%=      5-min Rain = 0
KMC5 190155Z 16012KT 32/16 A2986 RMK A01 T03240163  RH  038%=      5-min Rain = 0
KMC5 190156Z 15011KT 32/16 A2986 RMK A01 T03220163  RH  038%=      5-min Rain = 0
KMC5 190157Z 16011KT 32/16 A2986 RMK A01 T03210163  RH  039%=      5-min Rain = 0
KMC5 190158Z 16011KT 32/16 A2986 RMK A01 T03200163  RH  039%=      5-min Rain = 0
KMC5 190159Z 16010KT 32/16 A2986 RMK A01 T03200163  RH  039%=      5-min Rain = 0
KMC5 190200Z 16011KT 32/16 A2986 RMK A01 T03190163  RH  039%=      5-min Rain = 0
KMC5 190201Z 15010KT 32/16 A2986 RMK A01 T03180163  RH  039%=      5-min Rain = 0
KMC5 190202Z 15009KT 32/16 A2986 RMK A01 T03180164  RH  040%=      5-min Rain = 0
KMC5 190203Z 15013KT 32/16 A2986 RMK A01 T03160163  RH  040%=      5-min Rain = 0
KMC5 190204Z 16010KT 32/16 A2986 RMK A01 T03160163  RH  040%=      5-min Rain = 0
KMC5 190205Z 15012KT 32/16 A2986 RMK A01 T03170164  RH  040%=      5-min Rain = 0
KMC5 190206Z 15011KT 32/16 A2986 RMK A01 T03160164  RH  040%=      5-min Rain = 0
KMC5 190207Z 16012KT 32/16 A2987 RMK A01 T03150163  RH  040%=      5-min Rain = 0
KMC5 190208Z 16012KT 32/16 A2987 RMK A01 T03160164  RH  040%=      5-min Rain = 0
KMC5 190209Z 15012KT 32/16 A2987 RMK A01 T03160164  RH  040%=      5-min Rain = 0
KMC5 190210Z 15012KT 32/16 A2987 RMK A01 T03150164  RH  040%=      5-min Rain = 0
KMC5 190211Z 15012KT 32/16 A2987 RMK A01 T03150164  RH  040%=      5-min Rain = 0
KMC5 190212Z 16011KT 32/17 A2987 RMK A01 T03150165  RH  040%=      5-min Rain = 0
KMC5 190213Z 15012KT 31/16 A2987 RMK A01 T03140164  RH  041%=      5-min Rain = 0
KMC5 190214Z 15013KT 31/16 A2987 RMK A01 T03140164  RH  040%=      5-min Rain = 0
KMC5 190215Z 15014KT 31/16 A2987 RMK A01 T03140164  RH  040%=      5-min Rain = 0
KMC5 190216Z 16013KT 31/16 A2987 RMK A01 T03140164  RH  041%=      5-min Rain = 0
KMC5 190217Z 16013KT 31/16 A2987 RMK A01 T03140164  RH  040%=      5-min Rain = 0
KMC5 190218Z 15014KT 32/17 A2987 RMK A01 T03150165  RH  041%=      5-min Rain = 0
KMC5 190219Z 16011KT 32/17 A2987 RMK A01 T03150165  RH  041%=      5-min Rain = 0
KMC5 190220Z 16013KT 31/17 A2987 RMK A01 T03140166  RH  041%=      5-min Rain = 0
KMC5 190221Z 15012KT 31/17 A2987 RMK A01 T03130165  RH  041%=      5-min Rain = 0
KMC5 190222Z 15014KT 31/17 A2987 RMK A01 T03130165  RH  041%=      5-min Rain = 0
KMC5 190223Z 15013KT 31/17 A2987 RMK A01 T03130165  RH  041%=      5-min Rain = 0
KMC5 190224Z 15014KT 31/17 A2987 RMK A01 T03120166  RH  041%=      5-min Rain = 0
KMC5 190225Z 16013KT 31/17 A2987 RMK A01 T03120165  RH  041%=      5-min Rain = 0
KMC5 190226Z 16012KT 31/17 A2987 RMK A01 T03130166  RH  041%=      5-min Rain = 0
KMC5 190227Z 15012KT 31/17 A2987 RMK A01 T03120166  RH  042%=      5-min Rain = 0
KMC5 190228Z 15013KT 31/17 A2987 RMK A01 T03110166  RH  042%=      5-min Rain = 0
KMC5 190229Z 15014KT 31/17 A2987 RMK A01 T03110166  RH  042%=      5-min Rain = 0
KMC5 190230Z 15013KT 31/17 A2987 RMK A01 T03120166  RH  042%=      5-min Rain = 0
KMC5 190231Z 15013KT 31/17 A2987 RMK A01 T03120166  RH  042%=      5-min Rain = 0
KMC5 190232Z 15013KT 31/17 A2987 RMK A01 T03120167  RH  042%=      5-min Rain = 0
KMC5 190233Z 15012KT 31/17 A2987 RMK A01 T03110167  RH  042%=      5-min Rain = 0
KMC5 190234Z 15013KT 31/17 A2987 RMK A01 T03100167  RH  042%=      5-min Rain = 0
KMC5 190235Z 15013KT 31/17 A2988 RMK A01 T03100167  RH  042%=      5-min Rain = 0
KMC5 190236Z 15015KT 31/17 A2988 RMK A01 T03100167  RH  042%=      5-min Rain = 0
KMC5 190237Z 15013KT 31/17 A2988 RMK A01 T03100167  RH  042%=      5-min Rain = 0
KMC5 190238Z 15011KT 31/17 A2988 RMK A01 T03090168  RH  043%=      5-min Rain = 0
KMC5 190239Z 16011KT 31/17 A2988 RMK A01 T03080168  RH  043%=      5-min Rain = 0
KMC5 190240Z 16012KT 31/17 A2988 RMK A01 T03070168  RH  043%=      5-min Rain = 0
KMC5 190241Z 16015KT 31/17 A2988 RMK A01 T03070167  RH  043%=      5-min Rain = 0
KMC5 190242Z 16015KT 31/17 A2988 RMK A01 T03090167  RH  043%=      5-min Rain = 0
KMC5 190243Z 16014KT 31/17 A2988 RMK A01 T03100168  RH  043%=      5-min Rain = 0
KMC5 190244Z 16014KT 31/17 A2988 RMK A01 T03100167  RH  042%=      5-min Rain = 0
KMC5 190245Z 16013KT 31/17 A2988 RMK A01 T03100168  RH  043%=      5-min Rain = 0
KMC5 190246Z 16012KT 31/17 A2988 RMK A01 T03090168  RH  043%=      5-min Rain = 0
KMC5 190247Z 16014KT 31/17 A2988 RMK A01 T03080168  RH  043%=      5-min Rain = 0
KMC5 190248Z 16014KT 31/17 A2988 RMK A01 T03080168  RH  043%=      5-min Rain = 0
KMC5 190249Z 16014KT 31/17 A2988 RMK A01 T03090169  RH  043%=      5-min Rain = 0
KMC5 190250Z 16014KT 31/17 A2988 RMK A01 T03080169  RH  043%=      5-min Rain = 0
KMC5 190251Z 16014KT 31/17 A2988 RMK A01 T03080169  RH  043%=      5-min Rain = 0
KMC5 190252Z 16014G19KT 31/17 A2988 RMK A01 T03070168  RH  043%=      5-min Rain = 0
KMC5 190253Z 16013KT 31/17 A2988 RMK A01 T03080169  RH  043%=      5-min Rain = 0
KMC5 190254Z 16014KT 31/17 A2988 RMK A01 T03080169  RH  043%=      5-min Rain = 0
KMC5 190255Z 16015KT 31/17 A2988 RMK A01 T03080169  RH  043%=      5-min Rain = 0
KMC5 190256Z 16014KT 31/17 A2988 RMK A01 T03080169  RH  043%=      5-min Rain = 0
KMC5 190257Z 16014KT 31/17 A2988 RMK A01 T03080169  RH  043%=      5-min Rain = 0
KMC5 190258Z 16014KT 31/17 A2988 RMK A01 T03080169  RH  043%=      5-min Rain = 0
KMC5 190259Z 16012G17KT 31/17 A2988 RMK A01 T03080170  RH  044%=      5-min Rain = 0
KMC5 190300Z 16014KT 31/17 A2989 RMK A01 T03070169  RH  044%=      5-min Rain = 0
KMC5 190301Z 16012KT 31/17 A2989 RMK A01 T03060169  RH  044%=      5-min Rain = 0
KMC5 190302Z 16013KT 31/17 A2989 RMK A01 T03060170  RH  044%=      5-min Rain = 0
KMC5 190303Z 16013KT 31/17 A2989 RMK A01 T03060170  RH  044%=      5-min Rain = 0
KMC5 190304Z 16013KT 31/17 A2989 RMK A01 T03050170  RH  044%=      5-min Rain = 0
KMC5 190305Z 16015KT 31/17 A2989 RMK A01 T03050170  RH  044%=      5-min Rain = 0
KMC5 190306Z 16014KT 31/17 A2989 RMK A01 T03050169  RH  044%=      5-min Rain = 0
KMC5 190307Z 16012KT 31/17 A2989 RMK A01 T03060170  RH  044%=      5-min Rain = 0
KMC5 190308Z 15014KT 30/17 A2989 RMK A01 T03040170  RH  044%=      5-min Rain = 0
KMC5 190309Z 15013KT 30/17 A2989 RMK A01 T03040169  RH  044%=      5-min Rain = 0
KMC5 190310Z 16011KT 30/17 A2989 RMK A01 T03040170  RH  045%=      5-min Rain = 0
KMC5 190311Z 15012KT 30/17 A2989 RMK A01 T03030170  RH  045%=      5-min Rain = 0
KMC5 190312Z 15012KT 30/17 A2989 RMK A01 T03030170  RH  045%=      5-min Rain = 0
KMC5 190313Z 15011KT 30/17 A2989 RMK A01 T03020170  RH  045%=      5-min Rain = 0
KMC5 190314Z 15011KT 30/17 A2989 RMK A01 T03010170  RH  045%=      5-min Rain = 0
KMC5 190315Z 15010KT 30/17 A2989 RMK A01 T03000171  RH  046%=      5-min Rain = 0
KMC5 190316Z 15013KT 30/17 A2989 RMK A01 T02990171  RH  046%=      5-min Rain = 0
KMC5 190317Z 15012KT 30/17 A2989 RMK A01 T02990170  RH  046%=      5-min Rain = 0
KMC5 190318Z 15011KT 30/17 A2989 RMK A01 T02990171  RH  046%=      5-min Rain = 0
KMC5 190319Z 15011KT 30/17 A2989 RMK A01 T02980171  RH  046%=      5-min Rain = 0
KMC5 190320Z 15011KT 30/17 A299 RMK A01 T02980171  RH  047%=      5-min Rain = 0
KMC5 190321Z 15013KT 30/17 A299 RMK A01 T02970171  RH  047%=      5-min Rain = 0
KMC5 190322Z 15013KT 30/17 A299 RMK A01 T02980172  RH  047%=      5-min Rain = 0
KMC5 190323Z 16012KT 30/17 A299 RMK A01 T02970172  RH  047%=      5-min Rain = 0
KMC5 190324Z 16013KT 30/17 A299 RMK A01 T02970173  RH  047%=      5-min Rain = 0
KMC5 190325Z 15013KT 30/17 A299 RMK A01 T02970174  RH  047%=      5-min Rain = 0
KMC5 190326Z 15014KT 30/17 A299 RMK A01 T02970174  RH  048%=      5-min Rain = 0
KMC5 190327Z 15014KT 30/17 A299 RMK A01 T02970174  RH  048%=      5-min Rain = 0
KMC5 190328Z 15014KT 30/18 A299 RMK A01 T02970175  RH  048%=      5-min Rain = 0
KMC5 190329Z 15013KT 30/18 A299 RMK A01 T02970175  RH  048%=      5-min Rain = 0
KMC5 190330Z 15017KT 30/18 A299 RMK A01 T02960176  RH  048%=      5-min Rain = 0
KMC5 190331Z 15014KT 30/18 A299 RMK A01 T02960176  RH  048%=      5-min Rain = 0
KMC5 190332Z 15015KT 30/18 A299 RMK A01 T02960176  RH  048%=      5-min Rain = 0
KMC5 190333Z 15016KT 30/18 A299 RMK A01 T02960176  RH  049%=      5-min Rain = 0
KMC5 190334Z 15016KT 30/18 A299 RMK A01 T02960178  RH  049%=      5-min Rain = 0
KMC5 190335Z 16013KT 30/18 A299 RMK A01 T02960178  RH  049%=      5-min Rain = 0
KMC5 190336Z 15012KT 30/18 A299 RMK A01 T02960178  RH  049%=      5-min Rain = 0
KMC5 190337Z 15013G19KT 30/18 A299 RMK A01 T02950178  RH  050%=      5-min Rain = 0
KMC5 190338Z 16015KT 29/18 A299 RMK A01 T02940178  RH  050%=      5-min Rain = 0
KMC5 190339Z 15016KT 29/18 A299 RMK A01 T02940178  RH  050%=      5-min Rain = 0
KMC5 190340Z 16015KT 30/18 A299 RMK A01 T02960179  RH  049%=      5-min Rain = 0
KMC5 190341Z 15014KT 30/18 A299 RMK A01 T02960179  RH  050%=      5-min Rain = 0
KMC5 190342Z 16013KT 30/18 A299 RMK A01 T02960180  RH  050%=      5-min Rain = 0
KMC5 190343Z 16014KT 29/18 A299 RMK A01 T02940180  RH  050%=      5-min Rain = 0
KMC5 190344Z 16014G19KT 29/18 A299 RMK A01 T02940180  RH  050%=      5-min Rain = 0
KMC5 190345Z 16013KT 29/18 A299 RMK A01 T02940180  RH  050%=      5-min Rain = 0
KMC5 190346Z 15013KT 29/18 A2991 RMK A01 T02930180  RH  051%=      5-min Rain = 0
KMC5 190347Z 16011KT 29/18 A2991 RMK A01 T02930181  RH  051%=      5-min Rain = 0
KMC5 190348Z 15013KT 29/18 A2991 RMK A01 T02920180  RH  051%=      5-min Rain = 0
KMC5 190349Z 15014G19KT 29/18 A2991 RMK A01 T02910180  RH  051%=      5-min Rain = 0
KMC5 190350Z 16016KT 29/18 A299 RMK A01 T02910180  RH  051%=      5-min Rain = 0
KMC5 190351Z 16014KT 29/18 A2991 RMK A01 T02920180  RH  051%=      5-min Rain = 0
KMC5 190352Z 16013KT 29/18 A2991 RMK A01 T02930180  RH  051%=      5-min Rain = 0
KMC5 190353Z 16014KT 29/18 A2991 RMK A01 T02930180  RH  051%=      5-min Rain = 0
KMC5 190354Z 16016KT 29/18 A2991 RMK A01 T02920180  RH  051%=      5-min Rain = 0
KMC5 190355Z 15015KT 29/18 A2991 RMK A01 T02930180  RH  051%=      5-min Rain = 0
KMC5 190356Z 16015KT 29/18 A2991 RMK A01 T02930180  RH  051%=      5-min Rain = 0
KMC5 190357Z 16015KT 29/18 A2991 RMK A01 T02930180  RH  050%=      5-min Rain = 0
KMC5 190358Z 16014KT 29/18 A2991 RMK A01 T02930180  RH  050%=      5-min Rain = 0
KMC5 190359Z 16013KT 29/18 A2991 RMK A01 T02930180  RH  051%=      5-min Rain = 0
KMC5 190400Z 16014KT 29/18 A2991 RMK A01 T02920180  RH  051%=      5-min Rain = 0
KMC5 190401Z 15018KT 29/18 A2991 RMK A01 T02910179  RH  051%=      5-min Rain = 0
KMC5 190402Z 15017KT 29/18 A2991 RMK A01 T02930179  RH  050%=      5-min Rain = 0
KMC5 190403Z 16016KT 29/18 A2991 RMK A01 T02940179  RH  050%=      5-min Rain = 0
KMC5 190404Z 16015KT 29/18 A2991 RMK A01 T02940179  RH  050%=      5-min Rain = 0
KMC5 190405Z 16013KT 29/18 A2991 RMK A01 T02930180  RH  050%=      5-min Rain = 0
KMC5 190406Z 16015KT 29/18 A2991 RMK A01 T02930179  RH  051%=      5-min Rain = 0
KMC5 190407Z 16015KT 29/18 A2991 RMK A01 T02920179  RH  050%=      5-min Rain = 0
KMC5 190408Z 16014KT 29/18 A2991 RMK A01 T02930179  RH  050%=      5-min Rain = 0
KMC5 190409Z 16016KT 29/18 A2991 RMK A01 T02920179  RH  051%=      5-min Rain = 0
KMC5 190410Z 16014KT 29/18 A2991 RMK A01 T02920179  RH  051%=      5-min Rain = 0
KMC5 190411Z 15013KT 29/18 A2991 RMK A01 T02910180  RH  051%=      5-min Rain = 0
KMC5 190412Z 16017G22KT 29/18 A2991 RMK A01 T02900179  RH  051%=      5-min Rain = 0
KMC5 190413Z 16014KT 29/18 A2991 RMK A01 T02900178  RH  051%=      5-min Rain = 0
KMC5 190414Z 16016G21KT 29/18 A2991 RMK A01 T02900178  RH  051%=      5-min Rain = 0
KMC5 190415Z 16017KT 29/18 A2991 RMK A01 T02910178  RH  051%=      5-min Rain = 0
KMC5 190416Z 16015KT 29/18 A2991 RMK A01 T02910178  RH  050%=      5-min Rain = 0
KMC5 190417Z 16016KT 29/18 A2991 RMK A01 T02910178  RH  050%=      5-min Rain = 0
KMC5 190418Z 16015KT 29/18 A2991 RMK A01 T02910178  RH  050%=      5-min Rain = 0
KMC5 190419Z 16014KT 29/18 A2991 RMK A01 T02910178  RH  051%=      5-min Rain = 0
KMC5 190420Z 15016KT 29/18 A2991 RMK A01 T02900178  RH  051%=      5-min Rain = 0
KMC5 190421Z 16015G20KT 29/18 A2991 RMK A01 T02890178  RH  051%=      5-min Rain = 0
KMC5 190422Z 16014KT 29/18 A2991 RMK A01 T02890178  RH  051%=      5-min Rain = 0
KMC5 190423Z 16015KT 29/18 A2991 RMK A01 T02890178  RH  051%=      5-min Rain = 0
KMC5 190424Z 16015KT 29/18 A2991 RMK A01 T02890178  RH  051%=      5-min Rain = 0
KMC5 190425Z 16013KT 29/18 A2991 RMK A01 T02890178  RH  051%=      5-min Rain = 0
KMC5 190426Z 15013KT 29/18 A2991 RMK A01 T02880178  RH  051%=      5-min Rain = 0
KMC5 190427Z 16014G19KT 29/18 A2991 RMK A01 T02880178  RH  051%=      5-min Rain = 0
KMC5 190428Z 16015KT 29/18 A2991 RMK A01 T02870177  RH  051%=      5-min Rain = 0
KMC5 190429Z 16013KT 29/18 A2992 RMK A01 T02880178  RH  051%=      5-min Rain = 0
KMC5 190430Z 16015KT 29/18 A2992 RMK A01 T02870177  RH  051%=      5-min Rain = 0
KMC5 190431Z 16014KT 29/18 A2992 RMK A01 T02870177  RH  051%=      5-min Rain = 0
KMC5 190432Z 16015KT 29/18 A2991 RMK A01 T02870177  RH  051%=      5-min Rain = 0
KMC5 190433Z 16016KT 29/18 A2992 RMK A01 T02870177  RH  051%=      5-min Rain = 0
KMC5 190434Z 16018KT 29/18 A2992 RMK A01 T02880176  RH  051%=      5-min Rain = 0
KMC5 190435Z 16016KT 29/18 A2992 RMK A01 T02880176  RH  051%=      5-min Rain = 0
KMC5 190436Z 16015KT 29/18 A2992 RMK A01 T02880177  RH  051%=      5-min Rain = 0
KMC5 190437Z 16014KT 29/18 A2992 RMK A01 T02880176  RH  051%=      5-min Rain = 0
KMC5 190438Z 16013KT 29/18 A2992 RMK A01 T02870177  RH  051%=      5-min Rain = 0
KMC5 190439Z 16012KT 29/18 A2992 RMK A01 T02860177  RH  051%=      5-min Rain = 0
KMC5 190440Z 16016KT 29/18 A2992 RMK A01 T02860177  RH  052%=      5-min Rain = 0
KMC5 190441Z 16015KT 29/18 A2992 RMK A01 T02850176  RH  052%=      5-min Rain = 0
KMC5 190442Z 16013KT 29/18 A2992 RMK A01 T02860176  RH  051%=      5-min Rain = 0
KMC5 190443Z 16014KT 29/18 A2992 RMK A01 T02860176  RH  051%=      5-min Rain = 0
KMC5 190444Z 16016KT 29/18 A2992 RMK A01 T02860176  RH  051%=      5-min Rain = 0
KMC5 190445Z 16014KT 29/18 A2992 RMK A01 T02860176  RH  051%=      5-min Rain = 0
KMC5 190446Z 16017KT 29/18 A2992 RMK A01 T02860176  RH  051%=      5-min Rain = 0
KMC5 190447Z 16015KT 29/18 A2992 RMK A01 T02860175  RH  051%=      5-min Rain = 0
KMC5 190448Z 16013KT 29/18 A2992 RMK A01 T02860176  RH  051%=      5-min Rain = 0
KMC5 190449Z 17015KT 29/18 A2992 RMK A01 T02860175  RH  051%=      5-min Rain = 0
KMC5 190450Z 16016KT 29/18 A2992 RMK A01 T02850175  RH  051%=      5-min Rain = 0
KMC5 190451Z 16014KT 29/18 A2992 RMK A01 T02860175  RH  051%=      5-min Rain = 0
KMC5 190452Z 16014KT 29/18 A2992 RMK A01 T02860176  RH  051%=      5-min Rain = 0
KMC5 190453Z 16014KT 29/18 A2992 RMK A01 T02850175  RH  051%=      5-min Rain = 0
KMC5 190454Z 16013KT 29/18 A2992 RMK A01 T02850175  RH  051%=      5-min Rain = 0
KMC5 190455Z 16013KT 29/18 A2992 RMK A01 T02850175  RH  052%=      5-min Rain = 0
KMC5 190456Z 16017KT 28/17 A2992 RMK A01 T02840174  RH  051%=      5-min Rain = 0
KMC5 190457Z 16017KT 29/17 A2992 RMK A01 T02850174  RH  051%=      5-min Rain = 0
KMC5 190458Z 16017KT 29/17 A2992 RMK A01 T02860174  RH  051%=      5-min Rain = 0
KMC5 190459Z 16016KT 29/18 A2992 RMK A01 T02870175  RH  051%=      5-min Rain = 0

Page generated in 0.1439 seconds.